Observation data for Amarillo 15 North Northwest on 03/12/2018      Previous  Date  Next       Current Mesonet Observations  Soil Data  Daily Summary Page  Observations in Plain Language
KAM3 120500Z 10003KT 05/M08 A3036 RMK A01 T00471082  RH  038%=      5-min Rain = 0
KAM3 120501Z 10003KT 05/M08 A3036 RMK A01 T00481081  RH  039%=      5-min Rain = 0
KAM3 120502Z 09003KT 05/M08 A3036 RMK A01 T00481080  RH  039%=      5-min Rain = 0
KAM3 120503Z 09003KT 05/M08 A3036 RMK A01 T00481080  RH  039%=      5-min Rain = 0
KAM3 120504Z 09004KT 05/M08 A3036 RMK A01 T00481080  RH  039%=      5-min Rain = 0
KAM3 120505Z 09004KT 05/M08 A3036 RMK A01 T00471079  RH  039%=      5-min Rain = 0
KAM3 120506Z 09004KT 05/M08 A3036 RMK A01 T00471079  RH  040%=      5-min Rain = 0
KAM3 120507Z 08003KT 05/M08 A3036 RMK A01 T00461079  RH  040%=      5-min Rain = 0
KAM3 120508Z 08003KT 05/M08 A3036 RMK A01 T00451079  RH  040%=      5-min Rain = 0
KAM3 120509Z 08003KT 04/M08 A3036 RMK A01 T00441078  RH  040%=      5-min Rain = 0
KAM3 120510Z 08003KT 04/M08 A3036 RMK A01 T00441078  RH  041%=      5-min Rain = 0
KAM3 120511Z 08003KT 04/M08 A3036 RMK A01 T00441078  RH  040%=      5-min Rain = 0
KAM3 120512Z 08002KT 04/M08 A3036 RMK A01 T00441078  RH  041%=      5-min Rain = 0
KAM3 120513Z 08002KT 04/M08 A3036 RMK A01 T00441078  RH  041%=      5-min Rain = 0
KAM3 120514Z 08002KT 04/M08 A3037 RMK A01 T00441078  RH  041%=      5-min Rain = 0
KAM3 120515Z 08001KT 04/M08 A3037 RMK A01 T00441077  RH  041%=      5-min Rain = 0
KAM3 120516Z 08001KT 04/M08 A3037 RMK A01 T00441077  RH  041%=      5-min Rain = 0
KAM3 120517Z 08001KT 04/M08 A3037 RMK A01 T00441076  RH  041%=      5-min Rain = 0
KAM3 120518Z 08001KT 05/M08 A3037 RMK A01 T00451076  RH  041%=      5-min Rain = 0
KAM3 120519Z 08001KT 05/M08 A3037 RMK A01 T00461075  RH  041%=      5-min Rain = 0
KAM3 120520Z 08001KT 05/M08 A3037 RMK A01 T00461075  RH  041%=      5-min Rain = 0
KAM3 120521Z 08001KT 05/M08 A3037 RMK A01 T00461076  RH  041%=      5-min Rain = 0
KAM3 120522Z 08001KT 05/M08 A3037 RMK A01 T00461077  RH  041%=      5-min Rain = 0
KAM3 120523Z 08001KT 04/M08 A3037 RMK A01 T00441081  RH  040%=      5-min Rain = 0
KAM3 120524Z 08001KT 04/M08 A3037 RMK A01 T00411083  RH  040%=      5-min Rain = 0
KAM3 120525Z 08000KT 04/M08 A3037 RMK A01 T00391083  RH  041%=      5-min Rain = 0
KAM3 120526Z 00000KT 04/M08 A3037 RMK A01 T00391082  RH  041%=      5-min Rain = 0
KAM3 120527Z 00000KT 04/M08 A3037 RMK A01 T00381081  RH  041%=      5-min Rain = 0
KAM3 120528Z 00000KT 04/M08 A3037 RMK A01 T00381080  RH  042%=      5-min Rain = 0
KAM3 120529Z 00000KT 04/M08 A3037 RMK A01 T00381079  RH  042%=      5-min Rain = 0
KAM3 120530Z 00000KT 04/M08 A3037 RMK A01 T00381079  RH  042%=      5-min Rain = 0
KAM3 120531Z 00000KT 04/M08 A3037 RMK A01 T00381078  RH  042%=      5-min Rain = 0
KAM3 120532Z 00000KT 04/M08 A3037 RMK A01 T00381078  RH  043%=      5-min Rain = 0
KAM3 120533Z 00000KT 04/M08 A3037 RMK A01 T00381077  RH  043%=      5-min Rain = 0
KAM3 120534Z 00000KT 04/M08 A3037 RMK A01 T00391077  RH  043%=      5-min Rain = 0
KAM3 120535Z 00000KT 04/M08 A3037 RMK A01 T00391077  RH  043%=      5-min Rain = 0
KAM3 120536Z 00000KT 04/M08 A3037 RMK A01 T00401077  RH  042%=      5-min Rain = 0
KAM3 120537Z 00000KT 04/M08 A3037 RMK A01 T00401077  RH  042%=      5-min Rain = 0
KAM3 120538Z 08000KT 04/M08 A3037 RMK A01 T00401077  RH  042%=      5-min Rain = 0
KAM3 120539Z 08001KT 04/M08 A3037 RMK A01 T00411078  RH  042%=      5-min Rain = 0
KAM3 120540Z 08000KT 04/M08 A3037 RMK A01 T00411078  RH  041%=      5-min Rain = 0
KAM3 120541Z 08000KT 04/M08 A3037 RMK A01 T00421078  RH  041%=      5-min Rain = 0
KAM3 120542Z 00000KT 04/M08 A3037 RMK A01 T00421079  RH  041%=      5-min Rain = 0
KAM3 120543Z 00000KT 04/M08 A3037 RMK A01 T00421079  RH  041%=      5-min Rain = 0
KAM3 120544Z 00000KT 04/M08 A3037 RMK A01 T00421079  RH  041%=      5-min Rain = 0
KAM3 120545Z 00000KT 04/M08 A3037 RMK A01 T00421079  RH  041%=      5-min Rain = 0
KAM3 120546Z 00000KT 04/M08 A3037 RMK A01 T00421079  RH  041%=      5-min Rain = 0
KAM3 120547Z 00000KT 04/M08 A3037 RMK A01 T00411080  RH  041%=      5-min Rain = 0
KAM3 120548Z 00000KT 04/M08 A3037 RMK A01 T00391082  RH  041%=      5-min Rain = 0
KAM3 120549Z 00000KT 04/M09 A3037 RMK A01 T00361085  RH  041%=      5-min Rain = 0
KAM3 120550Z 00000KT 03/M09 A3037 RMK A01 T00341086  RH  041%=      5-min Rain = 0
KAM3 120551Z 00000KT 03/M08 A3037 RMK A01 T00331084  RH  042%=      5-min Rain = 0
KAM3 120552Z 00000KT 03/M08 A3037 RMK A01 T00341083  RH  042%=      5-min Rain = 0
KAM3 120553Z 00000KT 03/M08 A3037 RMK A01 T00341084  RH  042%=      5-min Rain = 0
KAM3 120554Z 00000KT 03/M09 A3037 RMK A01 T00331086  RH  041%=      5-min Rain = 0
KAM3 120555Z 00000KT 03/M09 A3037 RMK A01 T00321086  RH  042%=      5-min Rain = 0
KAM3 120556Z 00000KT 03/M09 A3037 RMK A01 T00311085  RH  042%=      5-min Rain = 0
KAM3 120557Z 00000KT 03/M08 A3037 RMK A01 T00311084  RH  043%=      5-min Rain = 0
KAM3 120558Z 00000KT 03/M08 A3037 RMK A01 T00311084  RH  043%=      5-min Rain = 0
KAM3 120559Z 00000KT 03/M08 A3037 RMK A01 T00321083  RH  043%=      5-min Rain = 0
KAM3 120600Z 00000KT 03/M08 A3037 RMK A01 T00321083  RH  043%=      5-min Rain = 0
KAM3 120601Z 00000KT 03/M08 A3037 RMK A01 T00331082  RH  042%=      5-min Rain = 0
KAM3 120602Z 00000KT 03/M08 A3037 RMK A01 T00341083  RH  042%=      5-min Rain = 0
KAM3 120603Z 00000KT 03/M08 A3037 RMK A01 T00341083  RH  042%=      5-min Rain = 0
KAM3 120604Z 00000KT 03/M08 A3037 RMK A01 T00341083  RH  042%=      5-min Rain = 0
KAM3 120605Z 00000KT 03/M08 A3037 RMK A01 T00341082  RH  042%=      5-min Rain = 0
KAM3 120606Z 00000KT 04/M08 A3037 RMK A01 T00351082  RH  042%=      5-min Rain = 0
KAM3 120607Z 00000KT 03/M08 A3037 RMK A01 T00341082  RH  042%=      5-min Rain = 0
KAM3 120608Z 00000KT 03/M08 A3037 RMK A01 T00341081  RH  042%=      5-min Rain = 0
KAM3 120609Z 00000KT 04/M08 A3037 RMK A01 T00351081  RH  043%=      5-min Rain = 0
KAM3 120610Z 00000KT 03/M08 A3037 RMK A01 T00341081  RH  043%=      5-min Rain = 0
KAM3 120611Z 00000KT 03/M08 A3037 RMK A01 T00341081  RH  042%=      5-min Rain = 0
KAM3 120612Z 00000KT 03/M08 A3037 RMK A01 T00341081  RH  042%=      5-min Rain = 0
KAM3 120613Z 00000KT 04/M08 A3037 RMK A01 T00351081  RH  042%=      5-min Rain = 0
KAM3 120614Z 00000KT 04/M08 A3037 RMK A01 T00351081  RH  042%=      5-min Rain = 0
KAM3 120615Z 00000KT 04/M08 A3037 RMK A01 T00351081  RH  042%=      5-min Rain = 0
KAM3 120616Z 00000KT 04/M08 A3037 RMK A01 T00351081  RH  042%=      5-min Rain = 0
KAM3 120617Z 08000KT 04/M08 A3037 RMK A01 T00351081  RH  042%=      5-min Rain = 0
KAM3 120618Z 08001KT 04/M08 A3037 RMK A01 T00361082  RH  042%=      5-min Rain = 0
KAM3 120619Z 08001KT 04/M08 A3037 RMK A01 T00361082  RH  042%=      5-min Rain = 0
KAM3 120620Z 08001KT 04/M08 A3037 RMK A01 T00361082  RH  042%=      5-min Rain = 0
KAM3 120621Z 08001KT 04/M08 A3037 RMK A01 T00371082  RH  042%=      5-min Rain = 0
KAM3 120622Z 08001KT 04/M08 A3037 RMK A01 T00371082  RH  042%=      5-min Rain = 0
KAM3 120623Z 08001KT 04/M08 A3037 RMK A01 T00361082  RH  042%=      5-min Rain = 0
KAM3 120624Z 08001KT 04/M08 A3037 RMK A01 T00371082  RH  042%=      5-min Rain = 0
KAM3 120625Z 08001KT 04/M08 A3037 RMK A01 T00361082  RH  042%=      5-min Rain = 0
KAM3 120626Z 08001KT 04/M08 A3037 RMK A01 T00371082  RH  042%=      5-min Rain = 0
KAM3 120627Z 08001KT 04/M08 A3037 RMK A01 T00371082  RH  042%=      5-min Rain = 0
KAM3 120628Z 08001KT 04/M08 A3037 RMK A01 T00361083  RH  041%=      5-min Rain = 0
KAM3 120629Z 08001KT 04/M08 A3037 RMK A01 T00371082  RH  041%=      5-min Rain = 0
KAM3 120630Z 08001KT 04/M08 A3037 RMK A01 T00371083  RH  041%=      5-min Rain = 0
KAM3 120631Z 08001KT 04/M08 A3037 RMK A01 T00371082  RH  042%=      5-min Rain = 0
KAM3 120632Z 08001KT 04/M08 A3037 RMK A01 T00371081  RH  042%=      5-min Rain = 0
KAM3 120633Z 08001KT 04/M08 A3037 RMK A01 T00361081  RH  042%=      5-min Rain = 0
KAM3 120634Z 08002KT 04/M08 A3037 RMK A01 T00371080  RH  042%=      5-min Rain = 0
KAM3 120635Z 08002KT 04/M08 A3036 RMK A01 T00371079  RH  042%=      5-min Rain = 0
KAM3 120636Z 08002KT 04/M08 A3036 RMK A01 T00381078  RH  043%=      5-min Rain = 0
KAM3 120637Z 08002KT 04/M08 A3036 RMK A01 T00381077  RH  043%=      5-min Rain = 0
KAM3 120638Z 08002KT 04/M08 A3036 RMK A01 T00381078  RH  043%=      5-min Rain = 0
KAM3 120639Z 08002KT 04/M08 A3036 RMK A01 T00381077  RH  043%=      5-min Rain = 0
KAM3 120640Z 08002KT 04/M08 A3036 RMK A01 T00391078  RH  042%=      5-min Rain = 0
KAM3 120641Z 08003KT 04/M08 A3036 RMK A01 T00391078  RH  042%=      5-min Rain = 0
KAM3 120642Z 08003KT 04/M08 A3036 RMK A01 T00391079  RH  042%=      5-min Rain = 0
KAM3 120643Z 08003KT 04/M08 A3036 RMK A01 T00361081  RH  042%=      5-min Rain = 0
KAM3 120644Z 08003KT 03/M08 A3036 RMK A01 T00331083  RH  042%=      5-min Rain = 0
KAM3 120645Z 08003KT 03/M08 A3036 RMK A01 T00311083  RH  043%=      5-min Rain = 0
KAM3 120646Z 08003KT 03/M08 A3036 RMK A01 T00301083  RH  043%=      5-min Rain = 0
KAM3 120647Z 08003KT 03/M08 A3036 RMK A01 T00291083  RH  044%=      5-min Rain = 0
KAM3 120648Z 08003KT 03/M08 A3036 RMK A01 T00291083  RH  044%=      5-min Rain = 0
KAM3 120649Z 08003KT 03/M08 A3036 RMK A01 T00291083  RH  044%=      5-min Rain = 0
KAM3 120650Z 09003KT 03/M08 A3036 RMK A01 T00281083  RH  044%=      5-min Rain = 0
KAM3 120651Z 09003KT 03/M08 A3036 RMK A01 T00261084  RH  044%=      5-min Rain = 0
KAM3 120652Z 09002KT 02/M09 A3036 RMK A01 T00231085  RH  045%=      5-min Rain = 0
KAM3 120653Z 09002KT 02/M09 A3036 RMK A01 T00201088  RH  045%=      5-min Rain = 0
KAM3 120654Z 09002KT 02/M09 A3037 RMK A01 T00181092  RH  044%=      5-min Rain = 0
KAM3 120655Z 09002KT 02/M09 A3037 RMK A01 T00171094  RH  043%=      5-min Rain = 0
KAM3 120656Z 09002KT 02/M10 A3037 RMK A01 T00161095  RH  043%=      5-min Rain = 0
KAM3 120657Z 09001KT 02/M10 A3037 RMK A01 T00161096  RH  043%=      5-min Rain = 0
KAM3 120658Z 09001KT 02/M10 A3037 RMK A01 T00161096  RH  043%=      5-min Rain = 0
KAM3 120659Z 09001KT 02/M10 A3037 RMK A01 T00171096  RH  043%=      5-min Rain = 0
KAM3 120700Z 09001KT 02/M10 A3037 RMK A01 T00181096  RH  043%=      5-min Rain = 0
KAM3 120701Z 09001KT 02/M10 A3037 RMK A01 T00181096  RH  042%=      5-min Rain = 0
KAM3 120702Z 09001KT 02/M10 A3037 RMK A01 T00191096  RH  042%=      5-min Rain = 0
KAM3 120703Z 09001KT 02/M10 A3037 RMK A01 T00201096  RH  042%=      5-min Rain = 0
KAM3 120704Z 09001KT 02/M10 A3037 RMK A01 T00211095  RH  042%=      5-min Rain = 0
KAM3 120705Z 09001KT 02/M09 A3037 RMK A01 T00221093  RH  042%=      5-min Rain = 0
KAM3 120706Z 09001KT 02/M09 A3037 RMK A01 T00231093  RH  042%=      5-min Rain = 0
KAM3 120707Z 09001KT 02/M09 A3037 RMK A01 T00241093  RH  042%=      5-min Rain = 0
KAM3 120708Z 09001KT 02/M09 A3037 RMK A01 T00231093  RH  042%=      5-min Rain = 0
KAM3 120709Z 09001KT 02/M09 A3037 RMK A01 T00231093  RH  042%=      5-min Rain = 0
KAM3 120710Z 09001KT 02/M09 A3037 RMK A01 T00231094  RH  042%=      5-min Rain = 0
KAM3 120711Z 09001KT 02/M09 A3037 RMK A01 T00221094  RH  042%=      5-min Rain = 0
KAM3 120712Z 09001KT 02/M10 A3037 RMK A01 T00211095  RH  042%=      5-min Rain = 0
KAM3 120713Z 09001KT 02/M10 A3037 RMK A01 T00201095  RH  042%=      5-min Rain = 0
KAM3 120714Z 09001KT 02/M09 A3037 RMK A01 T00201094  RH  043%=      5-min Rain = 0
KAM3 120715Z 09001KT 02/M09 A3037 RMK A01 T00201094  RH  043%=      5-min Rain = 0
KAM3 120716Z 13001KT 02/M09 A3037 RMK A01 T00201093  RH  043%=      5-min Rain = 0
KAM3 120717Z 14002KT 02/M09 A3037 RMK A01 T00201094  RH  043%=      5-min Rain = 0
KAM3 120718Z 14002KT 02/M09 A3037 RMK A01 T00201094  RH  043%=      5-min Rain = 0
KAM3 120719Z 14002KT 02/M09 A3037 RMK A01 T00191094  RH  043%=      5-min Rain = 0
KAM3 120720Z 14002KT 02/M09 A3037 RMK A01 T00201093  RH  043%=      5-min Rain = 0
KAM3 120721Z 14002KT 02/M09 A3037 RMK A01 T00191093  RH  043%=      5-min Rain = 0
KAM3 120722Z 14002KT 02/M09 A3037 RMK A01 T00191093  RH  043%=      5-min Rain = 0
KAM3 120723Z 14002KT 02/M09 A3037 RMK A01 T00191093  RH  043%=      5-min Rain = 0
KAM3 120724Z 14002KT 02/M09 A3037 RMK A01 T00201092  RH  043%=      5-min Rain = 0
KAM3 120725Z 14002KT 02/M09 A3037 RMK A01 T00201092  RH  043%=      5-min Rain = 0
KAM3 120726Z 14003KT 02/M09 A3037 RMK A01 T00201092  RH  043%=      5-min Rain = 0
KAM3 120727Z 14003KT 02/M09 A3037 RMK A01 T00201094  RH  043%=      5-min Rain = 0
KAM3 120728Z 14003KT 02/M10 A3037 RMK A01 T00181096  RH  042%=      5-min Rain = 0
KAM3 120729Z 13003KT 02/M10 A3037 RMK A01 T00161098  RH  042%=      5-min Rain = 0
KAM3 120730Z 13004KT 02/M10 A3037 RMK A01 T00151101  RH  042%=      5-min Rain = 0
KAM3 120731Z 13004KT 01/M10 A3037 RMK A01 T00131102  RH  042%=      5-min Rain = 0
KAM3 120732Z 13004KT 01/M10 A3037 RMK A01 T00111103  RH  042%=      5-min Rain = 0
KAM3 120733Z 13004KT 01/M10 A3037 RMK A01 T00111103  RH  042%=      5-min Rain = 0
KAM3 120734Z 13004KT 01/M10 A3037 RMK A01 T00101103  RH  042%=      5-min Rain = 0
KAM3 120735Z 13004KT 01/M10 A3037 RMK A01 T00101103  RH  042%=      5-min Rain = 0
KAM3 120736Z 13003KT 01/M10 A3037 RMK A01 T00101103  RH  042%=      5-min Rain = 0
KAM3 120737Z 13003KT 01/M10 A3037 RMK A01 T00111103  RH  042%=      5-min Rain = 0
KAM3 120738Z 13002KT 01/M10 A3037 RMK A01 T00111103  RH  042%=      5-min Rain = 0
KAM3 120739Z 13002KT 01/M10 A3037 RMK A01 T00101104  RH  042%=      5-min Rain = 0
KAM3 120740Z 13003KT 01/M10 A3037 RMK A01 T00111104  RH  042%=      5-min Rain = 0
KAM3 120741Z 14002KT 01/M10 A3037 RMK A01 T00101104  RH  042%=      5-min Rain = 0
KAM3 120742Z 14002KT 01/M10 A3037 RMK A01 T00101104  RH  042%=      5-min Rain = 0
KAM3 120743Z 14002KT 01/M10 A3037 RMK A01 T00101104  RH  042%=      5-min Rain = 0
KAM3 120744Z 14002KT 01/M10 A3037 RMK A01 T00101104  RH  042%=      5-min Rain = 0
KAM3 120745Z 14003KT 01/M10 A3037 RMK A01 T00101104  RH  042%=      5-min Rain = 0
KAM3 120746Z 14003KT 01/M10 A3037 RMK A01 T00101104  RH  042%=      5-min Rain = 0
KAM3 120747Z 14003KT 01/M10 A3037 RMK A01 T00111104  RH  042%=      5-min Rain = 0
KAM3 120748Z 14002KT 01/M10 A3037 RMK A01 T00111104  RH  042%=      5-min Rain = 0
KAM3 120749Z 14002KT 01/M10 A3037 RMK A01 T00111103  RH  042%=      5-min Rain = 0
KAM3 120750Z 14002KT 01/M10 A3037 RMK A01 T00101103  RH  042%=      5-min Rain = 0
KAM3 120751Z 14002KT 01/M10 A3037 RMK A01 T00111103  RH  042%=      5-min Rain = 0
KAM3 120752Z 14001KT 01/M10 A3037 RMK A01 T00121101  RH  043%=      5-min Rain = 0
KAM3 120753Z 14001KT 01/M10 A3037 RMK A01 T00131101  RH  043%=      5-min Rain = 0
KAM3 120754Z 14001KT 01/M10 A3037 RMK A01 T00141100  RH  042%=      5-min Rain = 0
KAM3 120755Z 14001KT 02/M10 A3037 RMK A01 T00161098  RH  042%=      5-min Rain = 0
KAM3 120756Z 14001KT 02/M10 A3037 RMK A01 T00181097  RH  042%=      5-min Rain = 0
KAM3 120757Z 14002KT 02/M10 A3037 RMK A01 T00191097  RH  042%=      5-min Rain = 0
KAM3 120758Z 14002KT 02/M10 A3037 RMK A01 T00191098  RH  042%=      5-min Rain = 0
KAM3 120759Z 14002KT 02/M10 A3037 RMK A01 T00181098  RH  042%=      5-min Rain = 0
KAM3 120800Z 14002KT 02/M10 A3037 RMK A01 T00181098  RH  042%=      5-min Rain = 0
KAM3 120801Z 14002KT 02/M10 A3037 RMK A01 T00181097  RH  042%=      5-min Rain = 0
KAM3 120802Z 14002KT 02/M10 A3037 RMK A01 T00191097  RH  042%=      5-min Rain = 0
KAM3 120803Z 14003KT 02/M10 A3037 RMK A01 T00191097  RH  042%=      5-min Rain = 0
KAM3 120804Z 14003KT 02/M10 A3037 RMK A01 T00191098  RH  042%=      5-min Rain = 0
KAM3 120805Z 14004KT 02/M10 A3037 RMK A01 T00161101  RH  041%=      5-min Rain = 0
KAM3 120806Z 14004KT 01/M10 A3037 RMK A01 T00121103  RH  042%=      5-min Rain = 0
KAM3 120807Z 14003KT 01/M10 A3037 RMK A01 T00101102  RH  043%=      5-min Rain = 0
KAM3 120808Z 14003KT 01/M10 A3037 RMK A01 T00091100  RH  044%=      5-min Rain = 0
KAM3 120809Z 14003KT 01/M10 A3037 RMK A01 T00091100  RH  044%=      5-min Rain = 0
KAM3 120810Z 14003KT 01/M10 A3037 RMK A01 T00081100  RH  044%=      5-min Rain = 0
KAM3 120811Z 14003KT 01/M10 A3037 RMK A01 T00051102  RH  044%=      5-min Rain = 0
KAM3 120812Z 14003KT 00/M10 A3037 RMK A01 T00031103  RH  045%=      5-min Rain = 0
KAM3 120813Z 14003KT 00/M10 A3037 RMK A01 T00011103  RH  045%=      5-min Rain = 0
KAM3 120814Z 14003KT 00/10 A3037 RMK A01 T00-00-103  RH  046%=      5-min Rain = 0
KAM3 120815Z 14003KT M00/M10 A3037 RMK A01 T10011103  RH  046%=      5-min Rain = 0
KAM3 120816Z 14003KT M00/M10 A3037 RMK A01 T10011102  RH  046%=      5-min Rain = 0
KAM3 120817Z 14003KT 00/10 A3037 RMK A01 T00000-101  RH  046%=      5-min Rain = 0
KAM3 120818Z 13003KT 00/M10 A3037 RMK A01 T00031100  RH  046%=      5-min Rain = 0
KAM3 120819Z 13003KT 01/M10 A3037 RMK A01 T00051100  RH  045%=      5-min Rain = 0
KAM3 120820Z 13003KT 01/M10 A3036 RMK A01 T00061101  RH  045%=      5-min Rain = 0
KAM3 120821Z 13003KT 01/M10 A3036 RMK A01 T00081100  RH  044%=      5-min Rain = 0
KAM3 120822Z 13003KT 01/M10 A3036 RMK A01 T00091098  RH  045%=      5-min Rain = 0
KAM3 120823Z 13003KT 01/M10 A3036 RMK A01 T00111096  RH  045%=      5-min Rain = 0
KAM3 120824Z 13003KT 01/M10 A3036 RMK A01 T00131095  RH  045%=      5-min Rain = 0
KAM3 120825Z 13002KT 02/M09 A3036 RMK A01 T00151094  RH  044%=      5-min Rain = 0
KAM3 120826Z 13002KT 02/M09 A3036 RMK A01 T00161094  RH  044%=      5-min Rain = 0
KAM3 120827Z 13002KT 02/M10 A3036 RMK A01 T00171095  RH  043%=      5-min Rain = 0
KAM3 120828Z 13002KT 02/M09 A3036 RMK A01 T00171094  RH  043%=      5-min Rain = 0
KAM3 120829Z 13002KT 02/M10 A3036 RMK A01 T00181095  RH  043%=      5-min Rain = 0
KAM3 120830Z 13002KT 02/M10 A3036 RMK A01 T00171097  RH  043%=      5-min Rain = 0
KAM3 120831Z 13002KT 02/M10 A3036 RMK A01 T00151097  RH  043%=      5-min Rain = 0
KAM3 120832Z 13002KT 01/M10 A3036 RMK A01 T00131097  RH  044%=      5-min Rain = 0
KAM3 120833Z 13002KT 01/M10 A3036 RMK A01 T00131096  RH  044%=      5-min Rain = 0
KAM3 120834Z 13002KT 01/M10 A3036 RMK A01 T00141095  RH  044%=      5-min Rain = 0
KAM3 120835Z 13002KT 01/M10 A3036 RMK A01 T00131096  RH  044%=      5-min Rain = 0
KAM3 120836Z 13002KT 01/M10 A3036 RMK A01 T00111098  RH  044%=      5-min Rain = 0
KAM3 120837Z 13002KT 01/M10 A3036 RMK A01 T00091099  RH  044%=      5-min Rain = 0
KAM3 120838Z 13002KT 01/M10 A3036 RMK A01 T00081099  RH  045%=      5-min Rain = 0
KAM3 120839Z 13002KT 01/M10 A3036 RMK A01 T00071099  RH  045%=      5-min Rain = 0
KAM3 120840Z 13002KT 01/M10 A3036 RMK A01 T00051098  RH  046%=      5-min Rain = 0
KAM3 120841Z 13002KT 01/M10 A3036 RMK A01 T00051097  RH  046%=      5-min Rain = 0
KAM3 120842Z 13002KT 00/M10 A3036 RMK A01 T00041096  RH  047%=      5-min Rain = 0
KAM3 120843Z 13001KT 00/M10 A3036 RMK A01 T00041097  RH  047%=      5-min Rain = 0
KAM3 120844Z 13001KT 00/M10 A3036 RMK A01 T00031099  RH  046%=      5-min Rain = 0
KAM3 120845Z 13001KT 00/M10 A3036 RMK A01 T00021099  RH  047%=      5-min Rain = 0
KAM3 120846Z 13000KT 00/M10 A3036 RMK A01 T00011099  RH  047%=      5-min Rain = 0
KAM3 120847Z 14000KT 00/M10 A3036 RMK A01 T00011098  RH  047%=      5-min Rain = 0
KAM3 120848Z 14000KT 00/10 A3036 RMK A01 T00000-99  RH  047%=      5-min Rain = 0
KAM3 120849Z 14001KT M00/M10 A3036 RMK A01 T10021100  RH  047%=      5-min Rain = 0
KAM3 120850Z 14000KT M00/M10 A3036 RMK A01 T10021099  RH  048%=      5-min Rain = 0
KAM3 120851Z 14000KT M00/M10 A3036 RMK A01 T10031098  RH  049%=      5-min Rain = 0
KAM3 120852Z 14001KT M00/M10 A3036 RMK A01 T10031097  RH  049%=      5-min Rain = 0
KAM3 120853Z 14001KT M00/M10 A3036 RMK A01 T10011096  RH  049%=      5-min Rain = 0
KAM3 120854Z 14001KT 00/10 A3036 RMK A01 T00-00-96  RH  049%=      5-min Rain = 0
KAM3 120855Z 14001KT 00/10 A3036 RMK A01 T00-00-96  RH  048%=      5-min Rain = 0
KAM3 120856Z 14001KT 00/10 A3036 RMK A01 T00000-96  RH  048%=      5-min Rain = 0
KAM3 120857Z 14001KT 00/M10 A3036 RMK A01 T00011095  RH  048%=      5-min Rain = 0
KAM3 120858Z 14001KT 00/M10 A3036 RMK A01 T00021096  RH  048%=      5-min Rain = 0
KAM3 120859Z 14001KT 00/M10 A3036 RMK A01 T00031096  RH  047%=      5-min Rain = 0
KAM3 120900Z 10001KT 00/M10 A3036 RMK A01 T00041096  RH  047%=      5-min Rain = 0
KAM3 120901Z 02001KT 00/M10 A3036 RMK A01 T00041097  RH  047%=      5-min Rain = 0
KAM3 120902Z 02001KT 00/M10 A3036 RMK A01 T00041097  RH  047%=      5-min Rain = 0
KAM3 120903Z 02000KT 00/M10 A3036 RMK A01 T00041096  RH  047%=      5-min Rain = 0
KAM3 120904Z 00000KT 00/M10 A3036 RMK A01 T00041095  RH  047%=      5-min Rain = 0
KAM3 120905Z 00000KT 00/M10 A3036 RMK A01 T00041096  RH  047%=      5-min Rain = 0
KAM3 120906Z 00000KT 00/M10 A3036 RMK A01 T00041095  RH  048%=      5-min Rain = 0
KAM3 120907Z 00000KT 01/M09 A3036 RMK A01 T00051092  RH  048%=      5-min Rain = 0
KAM3 120908Z 00000KT 01/M09 A3036 RMK A01 T00051092  RH  048%=      5-min Rain = 0
KAM3 120909Z 02001KT 01/M09 A3036 RMK A01 T00051093  RH  048%=      5-min Rain = 0
KAM3 120910Z 02001KT 01/M09 A3036 RMK A01 T00051094  RH  048%=      5-min Rain = 0
KAM3 120911Z 02001KT 00/M10 A3036 RMK A01 T00041095  RH  047%=      5-min Rain = 0
KAM3 120912Z 02001KT 00/M10 A3036 RMK A01 T00031096  RH  048%=      5-min Rain = 0
KAM3 120913Z 02001KT 00/M10 A3036 RMK A01 T00021096  RH  048%=      5-min Rain = 0
KAM3 120914Z 02001KT 00/M10 A3036 RMK A01 T00021096  RH  048%=      5-min Rain = 0
KAM3 120915Z 02001KT 00/M10 A3036 RMK A01 T00011096  RH  048%=      5-min Rain = 0
KAM3 120916Z 02001KT 00/M10 A3036 RMK A01 T00011096  RH  048%=      5-min Rain = 0
KAM3 120917Z 02001KT 00/M10 A3036 RMK A01 T00011096  RH  048%=      5-min Rain = 0
KAM3 120918Z 02002KT 00/10 A3036 RMK A01 T00000-96  RH  048%=      5-min Rain = 0
KAM3 120919Z 34003KT 00/10 A3036 RMK A01 T00-00-97  RH  048%=      5-min Rain = 0
KAM3 120920Z 21003KT M00/M10 A3036 RMK A01 T10011097  RH  048%=      5-min Rain = 0
KAM3 120921Z 22003KT M00/M10 A3036 RMK A01 T10011097  RH  049%=      5-min Rain = 0
KAM3 120922Z 22004KT M00/M10 A3036 RMK A01 T10031097  RH  049%=      5-min Rain = 0
KAM3 120923Z 22004KT M01/M10 A3036 RMK A01 T10051098  RH  050%=      5-min Rain = 0
KAM3 120924Z 21004KT M01/M10 A3035 RMK A01 T10071098  RH  050%=      5-min Rain = 0
KAM3 120925Z 21004KT M01/M10 A3035 RMK A01 T10081097  RH  051%=      5-min Rain = 0
KAM3 120926Z 21003KT M01/M10 A3035 RMK A01 T10081095  RH  052%=      5-min Rain = 0
KAM3 120927Z 21002KT M01/M09 A3035 RMK A01 T10081093  RH  053%=      5-min Rain = 0
KAM3 120928Z 21002KT M01/M09 A3035 RMK A01 T10091092  RH  053%=      5-min Rain = 0
KAM3 120929Z 21002KT M01/M09 A3035 RMK A01 T10091092  RH  053%=      5-min Rain = 0
KAM3 120930Z 21002KT M01/M09 A3035 RMK A01 T10091092  RH  053%=      5-min Rain = 0
KAM3 120931Z 21002KT M01/M09 A3035 RMK A01 T10091092  RH  053%=      5-min Rain = 0
KAM3 120932Z 21002KT M01/M09 A3035 RMK A01 T10081092  RH  053%=      5-min Rain = 0
KAM3 120933Z 21002KT M01/M09 A3035 RMK A01 T10071091  RH  053%=      5-min Rain = 0
KAM3 120934Z 21002KT M01/M09 A3035 RMK A01 T10061091  RH  053%=      5-min Rain = 0
KAM3 120935Z 21002KT M01/M09 A3035 RMK A01 T10061091  RH  053%=      5-min Rain = 0
KAM3 120936Z 21002KT M01/M09 A3035 RMK A01 T10051091  RH  052%=      5-min Rain = 0
KAM3 120937Z 21002KT M01/M09 A3035 RMK A01 T10051091  RH  052%=      5-min Rain = 0
KAM3 120938Z 22002KT M00/M09 A3035 RMK A01 T10041091  RH  052%=      5-min Rain = 0
KAM3 120939Z 22002KT M00/M09 A3035 RMK A01 T10041090  RH  052%=      5-min Rain = 0
KAM3 120940Z 22002KT M00/M09 A3035 RMK A01 T10041090  RH  052%=      5-min Rain = 0
KAM3 120941Z 22002KT M00/M09 A3035 RMK A01 T10041090  RH  052%=      5-min Rain = 0
KAM3 120942Z 22002KT M00/M09 A3035 RMK A01 T10041090  RH  052%=      5-min Rain = 0
KAM3 120943Z 22002KT M00/M09 A3035 RMK A01 T10041091  RH  052%=      5-min Rain = 0
KAM3 120944Z 22001KT M01/M09 A3035 RMK A01 T10051092  RH  052%=      5-min Rain = 0
KAM3 120945Z 22001KT M01/M09 A3035 RMK A01 T10061092  RH  052%=      5-min Rain = 0
KAM3 120946Z 22000KT M01/M09 A3035 RMK A01 T10071093  RH  052%=      5-min Rain = 0
KAM3 120947Z 00000KT M01/M09 A3035 RMK A01 T10071093  RH  052%=      5-min Rain = 0
KAM3 120948Z 00000KT M01/M09 A3035 RMK A01 T10071093  RH  052%=      5-min Rain = 0
KAM3 120949Z 00000KT M01/M09 A3035 RMK A01 T10081093  RH  052%=      5-min Rain = 0
KAM3 120950Z 00000KT M01/M09 A3035 RMK A01 T10091093  RH  053%=      5-min Rain = 0
KAM3 120951Z 00000KT M01/M09 A3035 RMK A01 T10091093  RH  053%=      5-min Rain = 0
KAM3 120952Z 00000KT M01/M09 A3035 RMK A01 T10091092  RH  053%=      5-min Rain = 0
KAM3 120953Z 00000KT M01/M09 A3035 RMK A01 T10081092  RH  053%=      5-min Rain = 0
KAM3 120954Z 00000KT M01/M09 A3035 RMK A01 T10081093  RH  053%=      5-min Rain = 0
KAM3 120955Z 00000KT M01/M09 A3035 RMK A01 T10081093  RH  053%=      5-min Rain = 0
KAM3 120956Z 22000KT M01/M09 A3035 RMK A01 T10081093  RH  052%=      5-min Rain = 0
KAM3 120957Z 22001KT M01/M09 A3035 RMK A01 T10081093  RH  052%=      5-min Rain = 0
KAM3 120958Z 22000KT M01/M09 A3035 RMK A01 T10081093  RH  052%=      5-min Rain = 0
KAM3 120959Z 00000KT M01/M09 A3035 RMK A01 T10081093  RH  053%=      5-min Rain = 0
KAM3 121000Z 00000KT M01/M09 A3035 RMK A01 T10081093  RH  053%=      5-min Rain = 0
KAM3 121001Z 22000KT M01/M09 A3035 RMK A01 T10091093  RH  053%=      5-min Rain = 0
KAM3 121002Z 22001KT M01/M09 A3035 RMK A01 T10091092  RH  053%=      5-min Rain = 0
KAM3 121003Z 22001KT M01/M09 A3035 RMK A01 T10091092  RH  053%=      5-min Rain = 0
KAM3 121004Z 22002KT M01/M09 A3035 RMK A01 T10091092  RH  053%=      5-min Rain = 0
KAM3 121005Z 22002KT M01/M09 A3035 RMK A01 T10091092  RH  054%=      5-min Rain = 0
KAM3 121006Z 21002KT M01/M09 A3035 RMK A01 T10101092  RH  054%=      5-min Rain = 0
KAM3 121007Z 19003KT M01/M09 A3036 RMK A01 T10101092  RH  054%=      5-min Rain = 0
KAM3 121008Z 19003KT M01/M09 A3036 RMK A01 T10111092  RH  054%=      5-min Rain = 0
KAM3 121009Z 19004KT M01/M09 A3036 RMK A01 T10121094  RH  054%=      5-min Rain = 0
KAM3 121010Z 19004KT M01/M10 A3036 RMK A01 T10131095  RH  054%=      5-min Rain = 0
KAM3 121011Z 19004KT M02/M11 A3036 RMK A01 T10171105  RH  051%=      5-min Rain = 0
KAM3 121012Z 19004KT M02/M11 A3036 RMK A01 T10221108  RH  052%=      5-min Rain = 0
KAM3 121013Z 19005KT M02/M10 A3036 RMK A01 T10231103  RH  054%=      5-min Rain = 0
KAM3 121014Z 19005KT M02/M10 A3036 RMK A01 T10221100  RH  055%=      5-min Rain = 0
KAM3 121015Z 19005KT M02/M10 A3036 RMK A01 T10211101  RH  054%=      5-min Rain = 0
KAM3 121016Z 18005KT M02/M10 A3036 RMK A01 T10221104  RH  054%=      5-min Rain = 0
KAM3 121017Z 17005KT M02/M11 A3036 RMK A01 T10241106  RH  053%=      5-min Rain = 0
KAM3 121018Z 18004KT M03/M11 A3036 RMK A01 T10261108  RH  053%=      5-min Rain = 0
KAM3 121019Z 18004KT M03/M11 A3036 RMK A01 T10271107  RH  054%=      5-min Rain = 0
KAM3 121020Z 18004KT M03/M11 A3036 RMK A01 T10281107  RH  054%=      5-min Rain = 0
KAM3 121021Z 18004KT M03/M11 A3036 RMK A01 T10281107  RH  055%=      5-min Rain = 0
KAM3 121022Z 18003KT M03/M10 A3036 RMK A01 T10271103  RH  056%=      5-min Rain = 0
KAM3 121023Z 19003KT M03/M10 A3036 RMK A01 T10251101  RH  056%=      5-min Rain = 0
KAM3 121024Z 19003KT M02/M10 A3036 RMK A01 T10241102  RH  055%=      5-min Rain = 0
KAM3 121025Z 18003KT M02/M10 A3035 RMK A01 T10231100  RH  056%=      5-min Rain = 0
KAM3 121026Z 18003KT M02/M10 A3035 RMK A01 T10211097  RH  056%=      5-min Rain = 0
KAM3 121027Z 18003KT M02/M10 A3035 RMK A01 T10201096  RH  056%=      5-min Rain = 0
KAM3 121028Z 18002KT M02/M10 A3035 RMK A01 T10181095  RH  056%=      5-min Rain = 0
KAM3 121029Z 18002KT M02/M10 A3035 RMK A01 T10181095  RH  056%=      5-min Rain = 0
KAM3 121030Z 18002KT M02/M10 A3035 RMK A01 T10181096  RH  055%=      5-min Rain = 0
KAM3 121031Z 19002KT M02/M10 A3035 RMK A01 T10181095  RH  055%=      5-min Rain = 0
KAM3 121032Z 18002KT M02/M09 A3035 RMK A01 T10161093  RH  056%=      5-min Rain = 0
KAM3 121033Z 18002KT M02/M09 A3035 RMK A01 T10151091  RH  056%=      5-min Rain = 0
KAM3 121034Z 19002KT M01/M09 A3035 RMK A01 T10141091  RH  056%=      5-min Rain = 0
KAM3 121035Z 19002KT M01/M09 A3035 RMK A01 T10131089  RH  056%=      5-min Rain = 0
KAM3 121036Z 19002KT M01/M09 A3036 RMK A01 T10121090  RH  056%=      5-min Rain = 0
KAM3 121037Z 19002KT M01/M09 A3036 RMK A01 T10111089  RH  055%=      5-min Rain = 0
KAM3 121038Z 19003KT M01/M09 A3036 RMK A01 T10101088  RH  055%=      5-min Rain = 0
KAM3 121039Z 19002KT M01/M09 A3036 RMK A01 T10101089  RH  055%=      5-min Rain = 0
KAM3 121040Z 19003KT M01/M09 A3036 RMK A01 T10101090  RH  055%=      5-min Rain = 0
KAM3 121041Z 18002KT M01/M09 A3036 RMK A01 T10111091  RH  054%=      5-min Rain = 0
KAM3 121042Z 18002KT M01/M09 A3036 RMK A01 T10131094  RH  054%=      5-min Rain = 0
KAM3 121043Z 19003KT M02/M10 A3036 RMK A01 T10161096  RH  054%=      5-min Rain = 0
KAM3 121044Z 19003KT M02/M10 A3036 RMK A01 T10181096  RH  055%=      5-min Rain = 0
KAM3 121045Z 19003KT M02/M10 A3036 RMK A01 T10191095  RH  056%=      5-min Rain = 0
KAM3 121046Z 19003KT M02/M10 A3036 RMK A01 T10201095  RH  057%=      5-min Rain = 0
KAM3 121047Z 19003KT M02/M10 A3036 RMK A01 T10211095  RH  057%=      5-min Rain = 0
KAM3 121048Z 18003KT M02/M10 A3036 RMK A01 T10211096  RH  057%=      5-min Rain = 0
KAM3 121049Z 18003KT M02/M10 A3036 RMK A01 T10231097  RH  057%=      5-min Rain = 0
KAM3 121050Z 17003KT M02/M10 A3036 RMK A01 T10241097  RH  057%=      5-min Rain = 0
KAM3 121051Z 17003KT M02/M10 A3035 RMK A01 T10241098  RH  057%=      5-min Rain = 0
KAM3 121052Z 17002KT M03/M10 A3035 RMK A01 T10251100  RH  057%=      5-min Rain = 0
KAM3 121053Z 17002KT M03/M10 A3035 RMK A01 T10271102  RH  056%=      5-min Rain = 0
KAM3 121054Z 17002KT M03/M10 A3035 RMK A01 T10291103  RH  057%=      5-min Rain = 0
KAM3 121055Z 17002KT M03/M10 A3035 RMK A01 T10301103  RH  057%=      5-min Rain = 0
KAM3 121056Z 17002KT M03/M10 A3035 RMK A01 T10301100  RH  059%=      5-min Rain = 0
KAM3 121057Z 17002KT M03/M10 A3035 RMK A01 T10301100  RH  059%=      5-min Rain = 0
KAM3 121058Z 17003KT M03/M10 A3035 RMK A01 T10301101  RH  058%=      5-min Rain = 0
KAM3 121059Z 17002KT M03/M10 A3035 RMK A01 T10301101  RH  058%=      5-min Rain = 0
KAM3 121100Z 17002KT M03/M10 A3035 RMK A01 T10291098  RH  059%=      5-min Rain = 0
KAM3 121101Z 17002KT M03/M10 A3035 RMK A01 T10281097  RH  059%=      5-min Rain = 0
KAM3 121102Z 17002KT M03/M10 A3035 RMK A01 T10271096  RH  059%=      5-min Rain = 0
KAM3 121103Z 17002KT M03/M10 A3035 RMK A01 T10261096  RH  059%=      5-min Rain = 0
KAM3 121104Z 16003KT M03/M10 A3035 RMK A01 T10261096  RH  058%=      5-min Rain = 0
KAM3 121105Z 16003KT M03/M10 A3035 RMK A01 T10261096  RH  058%=      5-min Rain = 0
KAM3 121106Z 16003KT M03/M10 A3035 RMK A01 T10271099  RH  058%=      5-min Rain = 0
KAM3 121107Z 16003KT M03/M10 A3035 RMK A01 T10291102  RH  057%=      5-min Rain = 0
KAM3 121108Z 16003KT M03/M10 A3035 RMK A01 T10311103  RH  058%=      5-min Rain = 0
KAM3 121109Z 17003KT M03/M10 A3035 RMK A01 T10321102  RH  059%=      5-min Rain = 0
KAM3 121110Z 17002KT M03/M10 A3035 RMK A01 T10331101  RH  059%=      5-min Rain = 0
KAM3 121111Z 17002KT M03/M10 A3035 RMK A01 T10341103  RH  059%=      5-min Rain = 0
KAM3 121112Z 17003KT M04/M10 A3035 RMK A01 T10351103  RH  060%=      5-min Rain = 0
KAM3 121113Z 18002KT M04/M10 A3035 RMK A01 T10351101  RH  060%=      5-min Rain = 0
KAM3 121114Z 17002KT M04/M10 A3035 RMK A01 T10361103  RH  060%=      5-min Rain = 0
KAM3 121115Z 16003KT M04/M10 A3035 RMK A01 T10381104  RH  060%=      5-min Rain = 0
KAM3 121116Z 16003KT M04/M10 A3035 RMK A01 T10401104  RH  061%=      5-min Rain = 0
KAM3 121117Z 15003KT M04/M10 A3035 RMK A01 T10411104  RH  062%=      5-min Rain = 0
KAM3 121118Z 16002KT M04/M10 A3036 RMK A01 T10421104  RH  062%=      5-min Rain = 0
KAM3 121119Z 16002KT M04/M11 A3036 RMK A01 T10441105  RH  062%=      5-min Rain = 0
KAM3 121120Z 16002KT M04/M10 A3036 RMK A01 T10441103  RH  063%=      5-min Rain = 0
KAM3 121121Z 16002KT M05/M10 A3036 RMK A01 T10451102  RH  064%=      5-min Rain = 0
KAM3 121122Z 16002KT M05/M10 A3036 RMK A01 T10451101  RH  065%=      5-min Rain = 0
KAM3 121123Z 17002KT M04/M10 A3036 RMK A01 T10441100  RH  065%=      5-min Rain = 0
KAM3 121124Z 19002KT M04/M10 A3036 RMK A01 T10431099  RH  065%=      5-min Rain = 0
KAM3 121125Z 20002KT M04/M10 A3036 RMK A01 T10411097  RH  065%=      5-min Rain = 0
KAM3 121126Z 20003KT M04/M10 A3036 RMK A01 T10401095  RH  065%=      5-min Rain = 0
KAM3 121127Z 19003KT M04/M10 A3036 RMK A01 T10391096  RH  065%=      5-min Rain = 0
KAM3 121128Z 19003KT M04/M10 A3036 RMK A01 T10391097  RH  064%=      5-min Rain = 0
KAM3 121129Z 20003KT M04/M10 A3036 RMK A01 T10401097  RH  064%=      5-min Rain = 0
KAM3 121130Z 21003KT M04/M10 A3036 RMK A01 T10391096  RH  065%=      5-min Rain = 0
KAM3 121131Z 21003KT M04/M10 A3036 RMK A01 T10381096  RH  064%=      5-min Rain = 0
KAM3 121132Z 22003KT M04/M10 A3036 RMK A01 T10381098  RH  063%=      5-min Rain = 0
KAM3 121133Z 23003KT M04/M10 A3036 RMK A01 T10381098  RH  063%=      5-min Rain = 0
KAM3 121134Z 23003KT M04/M10 A3036 RMK A01 T10381099  RH  063%=      5-min Rain = 0
KAM3 121135Z 23003KT M04/M10 A3036 RMK A01 T10391098  RH  063%=      5-min Rain = 0
KAM3 121136Z 23004KT M04/M10 A3036 RMK A01 T10391098  RH  064%=      5-min Rain = 0
KAM3 121137Z 23003KT M04/M10 A3036 RMK A01 T10391097  RH  064%=      5-min Rain = 0
KAM3 121138Z 23003KT M04/M10 A3036 RMK A01 T10381096  RH  064%=      5-min Rain = 0
KAM3 121139Z 23003KT M04/M10 A3036 RMK A01 T10371096  RH  063%=      5-min Rain = 0
KAM3 121140Z 23004KT M04/M10 A3036 RMK A01 T10371097  RH  063%=      5-min Rain = 0
KAM3 121141Z 23004KT M04/M10 A3036 RMK A01 T10361097  RH  063%=      5-min Rain = 0
KAM3 121142Z 23004KT M04/M10 A3036 RMK A01 T10361096  RH  063%=      5-min Rain = 0
KAM3 121143Z 23004KT M04/M10 A3036 RMK A01 T10351097  RH  062%=      5-min Rain = 0
KAM3 121144Z 23004KT M04/M10 A3036 RMK A01 T10351098  RH  062%=      5-min Rain = 0
KAM3 121145Z 23004KT M04/M10 A3036 RMK A01 T10351097  RH  062%=      5-min Rain = 0
KAM3 121146Z 24005KT M03/M10 A3036 RMK A01 T10341095  RH  062%=      5-min Rain = 0
KAM3 121147Z 24004KT M03/M10 A3036 RMK A01 T10331095  RH  062%=      5-min Rain = 0
KAM3 121148Z 24004KT M03/M09 A3036 RMK A01 T10321094  RH  062%=      5-min Rain = 0
KAM3 121149Z 24005KT M03/M10 A3036 RMK A01 T10321095  RH  062%=      5-min Rain = 0
KAM3 121150Z 24005KT M03/M09 A3036 RMK A01 T10321094  RH  062%=      5-min Rain = 0
KAM3 121151Z 24005KT M03/M09 A3036 RMK A01 T10301091  RH  063%=      5-min Rain = 0
KAM3 121152Z 25005KT M03/M09 A3036 RMK A01 T10291091  RH  063%=      5-min Rain = 0
KAM3 121153Z 25005KT M03/M09 A3036 RMK A01 T10281089  RH  063%=      5-min Rain = 0
KAM3 121154Z 25005KT M03/M09 A3036 RMK A01 T10251086  RH  063%=      5-min Rain = 0
KAM3 121155Z 25005KT M02/M08 A3036 RMK A01 T10221084  RH  063%=      5-min Rain = 0
KAM3 121156Z 26005KT M02/M08 A3036 RMK A01 T10201082  RH  062%=      5-min Rain = 0
KAM3 121157Z 26004KT M02/M08 A3036 RMK A01 T10181083  RH  061%=      5-min Rain = 0
KAM3 121158Z 26004KT M02/M08 A3036 RMK A01 T10181083  RH  061%=      5-min Rain = 0
KAM3 121159Z 25005KT M02/M08 A3036 RMK A01 T10181084  RH  061%=      5-min Rain = 0
KAM3 121200Z 25005KT M02/M09 A3036 RMK A01 T10181085  RH  060%=      5-min Rain = 0
KAM3 121201Z 25005KT M02/M09 A3036 RMK A01 T10201086  RH  061%=      5-min Rain = 0
KAM3 121202Z 25004KT M02/M09 A3036 RMK A01 T10221087  RH  061%=      5-min Rain = 0
KAM3 121203Z 25004KT M02/M09 A3036 RMK A01 T10241088  RH  061%=      5-min Rain = 0
KAM3 121204Z 25004KT M03/M09 A3036 RMK A01 T10251088  RH  062%=      5-min Rain = 0
KAM3 121205Z 25005KT M03/M09 A3036 RMK A01 T10261088  RH  062%=      5-min Rain = 0
KAM3 121206Z 25005KT M03/M09 A3036 RMK A01 T10271088  RH  062%=      5-min Rain = 0
KAM3 121207Z 25005KT M03/M09 A3036 RMK A01 T10281089  RH  063%=      5-min Rain = 0
KAM3 121208Z 25005KT M03/M09 A3036 RMK A01 T10291090  RH  063%=      5-min Rain = 0
KAM3 121209Z 25004KT M03/M09 A3036 RMK A01 T10301089  RH  064%=      5-min Rain = 0
KAM3 121210Z 25004KT M03/M09 A3036 RMK A01 T10311089  RH  064%=      5-min Rain = 0
KAM3 121211Z 24004KT M03/M09 A3036 RMK A01 T10311089  RH  064%=      5-min Rain = 0
KAM3 121212Z 25004KT M03/M09 A3036 RMK A01 T10321088  RH  065%=      5-min Rain = 0
KAM3 121213Z 25004KT M03/M09 A3036 RMK A01 T10321088  RH  065%=      5-min Rain = 0
KAM3 121214Z 25004KT M03/M09 A3036 RMK A01 T10321088  RH  065%=      5-min Rain = 0
KAM3 121215Z 25004KT M03/M09 A3036 RMK A01 T10311088  RH  065%=      5-min Rain = 0
KAM3 121216Z 25004KT M03/M09 A3036 RMK A01 T10301087  RH  065%=      5-min Rain = 0
KAM3 121217Z 24004KT M03/M09 A3036 RMK A01 T10301088  RH  065%=      5-min Rain = 0
KAM3 121218Z 24005KT M03/M09 A3036 RMK A01 T10301089  RH  064%=      5-min Rain = 0
KAM3 121219Z 24004KT M03/M09 A3037 RMK A01 T10301089  RH  064%=      5-min Rain = 0
KAM3 121220Z 24004KT M03/M09 A3037 RMK A01 T10311090  RH  064%=      5-min Rain = 0
KAM3 121221Z 24004KT M03/M09 A3037 RMK A01 T10321089  RH  065%=      5-min Rain = 0
KAM3 121222Z 24004KT M03/M09 A3037 RMK A01 T10331090  RH  065%=      5-min Rain = 0
KAM3 121223Z 24004KT M04/M09 A3037 RMK A01 T10351091  RH  065%=      5-min Rain = 0
KAM3 121224Z 24004KT M04/M09 A3037 RMK A01 T10351089  RH  066%=      5-min Rain = 0
KAM3 121225Z 24003KT M04/M09 A3036 RMK A01 T10351088  RH  067%=      5-min Rain = 0
KAM3 121226Z 24003KT M04/M09 A3036 RMK A01 T10351089  RH  066%=      5-min Rain = 0
KAM3 121227Z 24003KT M04/M09 A3036 RMK A01 T10361090  RH  066%=      5-min Rain = 0
KAM3 121228Z 24003KT M04/M09 A3037 RMK A01 T10371090  RH  067%=      5-min Rain = 0
KAM3 121229Z 24004KT M04/M09 A3037 RMK A01 T10381091  RH  067%=      5-min Rain = 0
KAM3 121230Z 24003KT M04/M09 A3037 RMK A01 T10391091  RH  067%=      5-min Rain = 0
KAM3 121231Z 24003KT M04/M09 A3037 RMK A01 T10401092  RH  068%=      5-min Rain = 0
KAM3 121232Z 24003KT M04/M09 A3037 RMK A01 T10411092  RH  068%=      5-min Rain = 0
KAM3 121233Z 24002KT M04/M09 A3037 RMK A01 T10421092  RH  068%=      5-min Rain = 0
KAM3 121234Z 24002KT M04/M09 A3037 RMK A01 T10421092  RH  069%=      5-min Rain = 0
KAM3 121235Z 25003KT M04/M09 A3037 RMK A01 T10421091  RH  069%=      5-min Rain = 0
KAM3 121236Z 26003KT M04/M09 A3037 RMK A01 T10421091  RH  069%=      5-min Rain = 0
KAM3 121237Z 27003KT M04/M09 A3037 RMK A01 T10421090  RH  069%=      5-min Rain = 0
KAM3 121238Z 27003KT M04/M09 A3037 RMK A01 T10411089  RH  069%=      5-min Rain = 0
KAM3 121239Z 27003KT M04/M09 A3037 RMK A01 T10391089  RH  069%=      5-min Rain = 0
KAM3 121240Z 27003KT M04/M09 A3037 RMK A01 T10391089  RH  068%=      5-min Rain = 0
KAM3 121241Z 27003KT M04/M09 A3037 RMK A01 T10401090  RH  068%=      5-min Rain = 0
KAM3 121242Z 27003KT M04/M09 A3037 RMK A01 T10411091  RH  068%=      5-min Rain = 0
KAM3 121243Z 27003KT M04/M09 A3037 RMK A01 T10411092  RH  068%=      5-min Rain = 0
KAM3 121244Z 26003KT M04/M09 A3037 RMK A01 T10421092  RH  068%=      5-min Rain = 0
KAM3 121245Z 26002KT M04/M09 A3037 RMK A01 T10421092  RH  068%=      5-min Rain = 0
KAM3 121246Z 26003KT M04/M09 A3037 RMK A01 T10421091  RH  068%=      5-min Rain = 0
KAM3 121247Z 26002KT M04/M09 A3037 RMK A01 T10421091  RH  069%=      5-min Rain = 0
KAM3 121248Z 26003KT M04/M09 A3037 RMK A01 T10421091  RH  069%=      5-min Rain = 0
KAM3 121249Z 26003KT M04/M09 A3037 RMK A01 T10411090  RH  069%=      5-min Rain = 0
KAM3 121250Z 26003KT M04/M09 A3037 RMK A01 T10401090  RH  069%=      5-min Rain = 0
KAM3 121251Z 26003KT M04/M09 A3037 RMK A01 T10401090  RH  068%=      5-min Rain = 0
KAM3 121252Z 26003KT M04/M09 A3037 RMK A01 T10401090  RH  068%=      5-min Rain = 0
KAM3 121253Z 26003KT M04/M09 A3037 RMK A01 T10391090  RH  068%=      5-min Rain = 0
KAM3 121254Z 25003KT M04/M09 A3037 RMK A01 T10391089  RH  068%=      5-min Rain = 0
KAM3 121255Z 24003KT M04/M09 A3037 RMK A01 T10381089  RH  068%=      5-min Rain = 0
KAM3 121256Z 23003KT M04/M09 A3037 RMK A01 T10381089  RH  068%=      5-min Rain = 0
KAM3 121257Z 23002KT M04/M09 A3037 RMK A01 T10381090  RH  067%=      5-min Rain = 0
KAM3 121258Z 23002KT M04/M09 A3037 RMK A01 T10381089  RH  068%=      5-min Rain = 0
KAM3 121259Z 23002KT M04/M09 A3037 RMK A01 T10371089  RH  068%=      5-min Rain = 0
KAM3 121300Z 22001KT M04/M09 A3037 RMK A01 T10371088  RH  068%=      5-min Rain = 0
KAM3 121301Z 22001KT M04/M09 A3037 RMK A01 T10381089  RH  068%=      5-min Rain = 0
KAM3 121302Z 22001KT M04/M09 A3037 RMK A01 T10391091  RH  067%=      5-min Rain = 0
KAM3 121303Z 22001KT M04/M09 A3037 RMK A01 T10411092  RH  068%=      5-min Rain = 0
KAM3 121304Z 22001KT M04/M09 A3037 RMK A01 T10421092  RH  068%=      5-min Rain = 0
KAM3 121305Z 22001KT M05/M10 A3037 RMK A01 T10451097  RH  067%=      5-min Rain = 0
KAM3 121306Z 22001KT M05/M10 A3037 RMK A01 T10481098  RH  068%=      5-min Rain = 0
KAM3 121307Z 22001KT M05/M10 A3037 RMK A01 T10491096  RH  070%=      5-min Rain = 0
KAM3 121308Z 22001KT M05/M09 A3037 RMK A01 T10491094  RH  071%=      5-min Rain = 0
KAM3 121309Z 22001KT M05/M09 A3037 RMK A01 T10481092  RH  071%=      5-min Rain = 0
KAM3 121310Z 22002KT M05/M10 A3037 RMK A01 T10471097  RH  068%=      5-min Rain = 0
KAM3 121311Z 22002KT M05/M10 A3037 RMK A01 T10471097  RH  068%=      5-min Rain = 0
KAM3 121312Z 22002KT M05/M10 A3037 RMK A01 T10461096  RH  068%=      5-min Rain = 0
KAM3 121313Z 21002KT M05/M10 A3037 RMK A01 T10451097  RH  067%=      5-min Rain = 0
KAM3 121314Z 20002KT M05/M10 A3037 RMK A01 T10451100  RH  065%=      5-min Rain = 0
KAM3 121315Z 19002KT M05/M10 A3037 RMK A01 T10461102  RH  065%=      5-min Rain = 0
KAM3 121316Z 19002KT M05/M10 A3037 RMK A01 T10471102  RH  065%=      5-min Rain = 0
KAM3 121317Z 19001KT M05/M10 A3037 RMK A01 T10471100  RH  066%=      5-min Rain = 0
KAM3 121318Z 19001KT M05/M10 A3037 RMK A01 T10461100  RH  066%=      5-min Rain = 0
KAM3 121319Z 19001KT M05/M10 A3037 RMK A01 T10471100  RH  066%=      5-min Rain = 0
KAM3 121320Z 19001KT M05/M10 A3037 RMK A01 T10461099  RH  067%=      5-min Rain = 0
KAM3 121321Z 19001KT M05/M10 A3037 RMK A01 T10461099  RH  067%=      5-min Rain = 0
KAM3 121322Z 19001KT M05/M10 A3037 RMK A01 T10461098  RH  067%=      5-min Rain = 0
KAM3 121323Z 19002KT M05/M10 A3037 RMK A01 T10451097  RH  067%=      5-min Rain = 0
KAM3 121324Z 19002KT M04/M10 A3037 RMK A01 T10441096  RH  067%=      5-min Rain = 0
KAM3 121325Z 19003KT M04/M10 A3037 RMK A01 T10431096  RH  067%=      5-min Rain = 0
KAM3 121326Z 19003KT M04/M10 A3037 RMK A01 T10431097  RH  066%=      5-min Rain = 0
KAM3 121327Z 19002KT M04/M10 A3037 RMK A01 T10431096  RH  066%=      5-min Rain = 0
KAM3 121328Z 19002KT M04/M10 A3037 RMK A01 T10421096  RH  066%=      5-min Rain = 0
KAM3 121329Z 19002KT M04/M10 A3037 RMK A01 T10421097  RH  066%=      5-min Rain = 0
KAM3 121330Z 19002KT M04/M10 A3037 RMK A01 T10431098  RH  065%=      5-min Rain = 0
KAM3 121331Z 19002KT M04/M10 A3037 RMK A01 T10421097  RH  066%=      5-min Rain = 0
KAM3 121332Z 19002KT M04/M10 A3037 RMK A01 T10411095  RH  066%=      5-min Rain = 0
KAM3 121333Z 19002KT M04/M09 A3037 RMK A01 T10401094  RH  066%=      5-min Rain = 0
KAM3 121334Z 19003KT M04/M09 A3037 RMK A01 T10391093  RH  066%=      5-min Rain = 0
KAM3 121335Z 19002KT M04/M09 A3037 RMK A01 T10371090  RH  067%=      5-min Rain = 0
KAM3 121336Z 19002KT M04/M09 A3037 RMK A01 T10361089  RH  066%=      5-min Rain = 0
KAM3 121337Z 19002KT M03/M09 A3037 RMK A01 T10341090  RH  066%=      5-min Rain = 0
KAM3 121338Z 19002KT M03/M09 A3037 RMK A01 T10331089  RH  065%=      5-min Rain = 0
KAM3 121339Z 19002KT M03/M09 A3037 RMK A01 T10321088  RH  065%=      5-min Rain = 0
KAM3 121340Z 19002KT M03/M09 A3037 RMK A01 T10311088  RH  064%=      5-min Rain = 0
KAM3 121341Z 19002KT M03/M09 A3037 RMK A01 T10291088  RH  064%=      5-min Rain = 0
KAM3 121342Z 19002KT M03/M09 A3037 RMK A01 T10281087  RH  064%=      5-min Rain = 0
KAM3 121343Z 19002KT M03/M09 A3037 RMK A01 T10271086  RH  063%=      5-min Rain = 0
KAM3 121344Z 18002KT M03/M09 A3037 RMK A01 T10261087  RH  063%=      5-min Rain = 0
KAM3 121345Z 18002KT M03/M09 A3037 RMK A01 T10251088  RH  062%=      5-min Rain = 0
KAM3 121346Z 18002KT M03/M09 A3037 RMK A01 T10251089  RH  062%=      5-min Rain = 0
KAM3 121347Z 18002KT M03/M09 A3037 RMK A01 T10251089  RH  061%=      5-min Rain = 0
KAM3 121348Z 18002KT M02/M09 A3037 RMK A01 T10241089  RH  061%=      5-min Rain = 0
KAM3 121349Z 17002KT M02/M09 A3037 RMK A01 T10241090  RH  061%=      5-min Rain = 0
KAM3 121350Z 16002KT M03/M09 A3037 RMK A01 T10251091  RH  061%=      5-min Rain = 0
KAM3 121351Z 16002KT M03/M09 A3037 RMK A01 T10251091  RH  061%=      5-min Rain = 0
KAM3 121352Z 16002KT M03/M09 A3037 RMK A01 T10261091  RH  061%=      5-min Rain = 0
KAM3 121353Z 16002KT M03/M09 A3037 RMK A01 T10261090  RH  061%=      5-min Rain = 0
KAM3 121354Z 15002KT M02/M09 A3037 RMK A01 T10241089  RH  061%=      5-min Rain = 0
KAM3 121355Z 15002KT M02/M09 A3037 RMK A01 T10231089  RH  061%=      5-min Rain = 0
KAM3 121356Z 14003KT M02/M09 A3037 RMK A01 T10231088  RH  061%=      5-min Rain = 0
KAM3 121357Z 14002KT M02/M09 A3037 RMK A01 T10231088  RH  061%=      5-min Rain = 0
KAM3 121358Z 13003KT M02/M09 A3037 RMK A01 T10221089  RH  060%=      5-min Rain = 0
KAM3 121359Z 13003KT M02/M09 A3037 RMK A01 T10211088  RH  060%=      5-min Rain = 0
KAM3 121400Z 13003KT M02/M09 A3037 RMK A01 T10211088  RH  060%=      5-min Rain = 0
KAM3 121401Z 13003KT M02/M09 A3037 RMK A01 T10211088  RH  060%=      5-min Rain = 0
KAM3 121402Z 13003KT M02/M09 A3037 RMK A01 T10201087  RH  060%=      5-min Rain = 0
KAM3 121403Z 13002KT M02/M09 A3037 RMK A01 T10201087  RH  060%=      5-min Rain = 0
KAM3 121404Z 13002KT M02/M09 A3037 RMK A01 T10181085  RH  060%=      5-min Rain = 0
KAM3 121405Z 13002KT M02/M08 A3037 RMK A01 T10171084  RH  060%=      5-min Rain = 0
KAM3 121406Z 13002KT M01/M08 A3037 RMK A01 T10141084  RH  059%=      5-min Rain = 0
KAM3 121407Z 13002KT M01/M08 A3037 RMK A01 T10131083  RH  059%=      5-min Rain = 0
KAM3 121408Z 13002KT M01/M08 A3037 RMK A01 T10121083  RH  059%=      5-min Rain = 0
KAM3 121409Z 12003KT M01/M08 A3037 RMK A01 T10111082  RH  058%=      5-min Rain = 0
KAM3 121410Z 12003KT M01/M08 A3037 RMK A01 T10111082  RH  058%=      5-min Rain = 0
KAM3 121411Z 12003KT M01/M08 A3037 RMK A01 T10101082  RH  058%=      5-min Rain = 0
KAM3 121412Z 12002KT M01/M08 A3037 RMK A01 T10091081  RH  058%=      5-min Rain = 0
KAM3 121413Z 12001KT M01/M08 A3037 RMK A01 T10071080  RH  058%=      5-min Rain = 0
KAM3 121414Z 10001KT M01/M08 A3037 RMK A01 T10061081  RH  057%=      5-min Rain = 0
KAM3 121415Z 09001KT M01/M08 A3037 RMK A01 T10051082  RH  056%=      5-min Rain = 0
KAM3 121416Z 10001KT M00/M08 A3037 RMK A01 T10041082  RH  056%=      5-min Rain = 0
KAM3 121417Z 10001KT M00/M08 A3037 RMK A01 T10041081  RH  056%=      5-min Rain = 0
KAM3 121418Z 10001KT M00/M08 A3037 RMK A01 T10021080  RH  056%=      5-min Rain = 0
KAM3 121419Z 12001KT M00/M08 A3037 RMK A01 T10011079  RH  055%=      5-min Rain = 0
KAM3 121420Z 12001KT 00/M08 A3037 RMK A01 T00011079  RH  055%=      5-min Rain = 0
KAM3 121421Z 12001KT 00/M08 A3037 RMK A01 T00021079  RH  054%=      5-min Rain = 0
KAM3 121422Z 13001KT 00/M08 A3037 RMK A01 T00041078  RH  054%=      5-min Rain = 0
KAM3 121423Z 13001KT 01/M08 A3037 RMK A01 T00071078  RH  053%=      5-min Rain = 0
KAM3 121424Z 13000KT 01/M08 A3037 RMK A01 T00081078  RH  052%=      5-min Rain = 0
KAM3 121425Z 13001KT 01/M08 A3037 RMK A01 T00101078  RH  052%=      5-min Rain = 0
KAM3 121426Z 13000KT 01/M08 A3037 RMK A01 T00121078  RH  051%=      5-min Rain = 0
KAM3 121427Z 11001KT 01/M08 A3037 RMK A01 T00141079  RH  050%=      5-min Rain = 0
KAM3 121428Z 11001KT 02/M08 A3038 RMK A01 T00151079  RH  050%=      5-min Rain = 0
KAM3 121429Z 11001KT 02/M08 A3038 RMK A01 T00171078  RH  049%=      5-min Rain = 0
KAM3 121430Z 11001KT 02/M08 A3038 RMK A01 T00191079  RH  048%=      5-min Rain = 0
KAM3 121431Z 10001KT 02/M08 A3038 RMK A01 T00201079  RH  048%=      5-min Rain = 0
KAM3 121432Z 10001KT 02/M08 A3038 RMK A01 T00211078  RH  048%=      5-min Rain = 0
KAM3 121433Z 11000KT 02/M08 A3038 RMK A01 T00221077  RH  048%=      5-min Rain = 0
KAM3 121434Z 10001KT 02/M08 A3038 RMK A01 T00241078  RH  047%=      5-min Rain = 0
KAM3 121435Z 10000KT 03/M08 A3038 RMK A01 T00251078  RH  047%=      5-min Rain = 0
KAM3 121436Z 10001KT 03/M08 A3038 RMK A01 T00261077  RH  046%=      5-min Rain = 0
KAM3 121437Z 10000KT 03/M08 A3038 RMK A01 T00271077  RH  046%=      5-min Rain = 0
KAM3 121438Z 12000KT 03/M08 A3038 RMK A01 T00301075  RH  046%=      5-min Rain = 0
KAM3 121439Z 15000KT 03/M08 A3038 RMK A01 T00331075  RH  045%=      5-min Rain = 0
KAM3 121440Z 14000KT 03/M08 A3038 RMK A01 T00331077  RH  044%=      5-min Rain = 0
KAM3 121441Z 14001KT 03/M08 A3038 RMK A01 T00321076  RH  045%=      5-min Rain = 0
KAM3 121442Z 14001KT 03/M08 A3038 RMK A01 T00321077  RH  045%=      5-min Rain = 0
KAM3 121443Z 14000KT 03/M08 A3038 RMK A01 T00321077  RH  045%=      5-min Rain = 0
KAM3 121444Z 14000KT 03/M08 A3038 RMK A01 T00331076  RH  045%=      5-min Rain = 0
KAM3 121445Z 15001KT 04/M08 A3038 RMK A01 T00361075  RH  044%=      5-min Rain = 0
KAM3 121446Z 13001KT 04/M08 A3038 RMK A01 T00381075  RH  044%=      5-min Rain = 0
KAM3 121447Z 14001KT 04/M08 A3038 RMK A01 T00401075  RH  043%=      5-min Rain = 0
KAM3 121448Z 15001KT 04/M08 A3038 RMK A01 T00411075  RH  043%=      5-min Rain = 0
KAM3 121449Z 14001KT 04/M08 A3038 RMK A01 T00411075  RH  042%=      5-min Rain = 0
KAM3 121450Z 14002KT 04/M08 A3038 RMK A01 T00431075  RH  042%=      5-min Rain = 0
KAM3 121451Z 15001KT 04/M08 A3038 RMK A01 T00421076  RH  042%=      5-min Rain = 0
KAM3 121452Z 16002KT 04/M08 A3038 RMK A01 T00421076  RH  042%=      5-min Rain = 0
KAM3 121453Z 18001KT 04/M08 A3038 RMK A01 T00411076  RH  042%=      5-min Rain = 0
KAM3 121454Z 24001KT 04/M08 A3038 RMK A01 T00411076  RH  042%=      5-min Rain = 0
KAM3 121455Z 29000KT 04/M08 A3038 RMK A01 T00411077  RH  042%=      5-min Rain = 0
KAM3 121456Z 20000KT 04/M08 A3038 RMK A01 T00421075  RH  042%=      5-min Rain = 0
KAM3 121457Z 19000KT 04/M08 A3038 RMK A01 T00421076  RH  042%=      5-min Rain = 0
KAM3 121458Z 17000KT 04/M08 A3038 RMK A01 T00421076  RH  042%=      5-min Rain = 0
KAM3 121459Z 22001KT 04/M08 A3038 RMK A01 T00421076  RH  042%=      5-min Rain = 0
KAM3 121500Z 23001KT 04/M07 A3038 RMK A01 T00421074  RH  042%=      5-min Rain = 0
KAM3 121501Z 23002KT 04/M07 A3038 RMK A01 T00431074  RH  042%=      5-min Rain = 0
KAM3 121502Z 22002KT 04/M07 A3038 RMK A01 T00431074  RH  043%=      5-min Rain = 0
KAM3 121503Z 18002KT 04/M07 A3038 RMK A01 T00431073  RH  043%=      5-min Rain = 0
KAM3 121504Z 18001KT 05/M07 A3038 RMK A01 T00451072  RH  042%=      5-min Rain = 0
KAM3 121505Z 19002KT 05/M07 A3038 RMK A01 T00471072  RH  042%=      5-min Rain = 0
KAM3 121506Z 19001KT 05/M07 A3038 RMK A01 T00491072  RH  041%=      5-min Rain = 0
KAM3 121507Z 22002KT 05/M07 A3038 RMK A01 T00501071  RH  041%=      5-min Rain = 0
KAM3 121508Z 22003KT 05/M07 A3038 RMK A01 T00521069  RH  041%=      5-min Rain = 0
KAM3 121509Z 22003KT 05/M07 A3038 RMK A01 T00521070  RH  041%=      5-min Rain = 0
KAM3 121510Z 23003KT 05/M07 A3038 RMK A01 T00521069  RH  041%=      5-min Rain = 0
KAM3 121511Z 22002KT 05/M07 A3038 RMK A01 T00531068  RH  041%=      5-min Rain = 0
KAM3 121512Z 19003KT 05/M07 A3038 RMK A01 T00531068  RH  041%=      5-min Rain = 0
KAM3 121513Z 17003KT 05/M07 A3038 RMK A01 T00541067  RH  041%=      5-min Rain = 0
KAM3 121514Z 16003KT 06/M07 A3038 RMK A01 T00561066  RH  041%=      5-min Rain = 0
KAM3 121515Z 17004KT 06/M07 A3039 RMK A01 T00581065  RH  041%=      5-min Rain = 0
KAM3 121516Z 20004KT 06/M07 A3039 RMK A01 T00581066  RH  040%=      5-min Rain = 0
KAM3 121517Z 21002KT 06/M07 A3039 RMK A01 T00571066  RH  041%=      5-min Rain = 0
KAM3 121518Z 20002KT 06/M07 A3039 RMK A01 T00571065  RH  041%=      5-min Rain = 0
KAM3 121519Z 20003KT 06/M07 A3039 RMK A01 T00591065  RH  041%=      5-min Rain = 0
KAM3 121520Z 18003KT 06/M07 A3039 RMK A01 T00591065  RH  040%=      5-min Rain = 0
KAM3 121521Z 17004KT 06/M07 A3039 RMK A01 T00601065  RH  040%=      5-min Rain = 0
KAM3 121522Z 18005KT 06/M06 A3039 RMK A01 T00611064  RH  040%=      5-min Rain = 0
KAM3 121523Z 19004KT 06/M07 A3039 RMK A01 T00621065  RH  040%=      5-min Rain = 0
KAM3 121524Z 19003KT 06/M07 A3038 RMK A01 T00631065  RH  040%=      5-min Rain = 0
KAM3 121525Z 19004KT 06/M07 A3038 RMK A01 T00631065  RH  040%=      5-min Rain = 0
KAM3 121526Z 18005KT 06/M06 A3038 RMK A01 T00641063  RH  040%=      5-min Rain = 0
KAM3 121527Z 17004KT 07/M06 A3038 RMK A01 T00651064  RH  039%=      5-min Rain = 0
KAM3 121528Z 17003KT 06/M06 A3038 RMK A01 T00641064  RH  039%=      5-min Rain = 0
KAM3 121529Z 21003KT 06/M06 A3038 RMK A01 T00641064  RH  039%=      5-min Rain = 0
KAM3 121530Z 20003KT 07/M06 A3038 RMK A01 T00651064  RH  039%=      5-min Rain = 0
KAM3 121531Z 20004KT 07/M06 A3038 RMK A01 T00651064  RH  039%=      5-min Rain = 0
KAM3 121532Z 18005KT 07/M06 A3038 RMK A01 T00661064  RH  039%=      5-min Rain = 0
KAM3 121533Z 19004KT 07/M06 A3038 RMK A01 T00681063  RH  039%=      5-min Rain = 0
KAM3 121534Z 20003KT 07/M06 A3038 RMK A01 T00681063  RH  039%=      5-min Rain = 0
KAM3 121535Z 20003KT 07/M06 A3038 RMK A01 T00681064  RH  038%=      5-min Rain = 0
KAM3 121536Z 18002KT 07/M06 A3038 RMK A01 T00681064  RH  039%=      5-min Rain = 0
KAM3 121537Z 20003KT 07/M06 A3038 RMK A01 T00711061  RH  038%=      5-min Rain = 0
KAM3 121538Z 18004KT 07/M06 A3038 RMK A01 T00741061  RH  038%=      5-min Rain = 0
KAM3 121539Z 18005KT 07/M06 A3038 RMK A01 T00741061  RH  038%=      5-min Rain = 0
KAM3 121540Z 18003KT 07/M06 A3038 RMK A01 T00741061  RH  038%=      5-min Rain = 0
KAM3 121541Z 18005KT 08/M06 A3038 RMK A01 T00751060  RH  038%=      5-min Rain = 0
KAM3 121542Z 18006KT 08/M06 A3038 RMK A01 T00771057  RH  038%=      5-min Rain = 0
KAM3 121543Z 18006KT 08/M06 A3038 RMK A01 T00781059  RH  037%=      5-min Rain = 0
KAM3 121544Z 17006KT 08/M06 A3038 RMK A01 T00761058  RH  038%=      5-min Rain = 0
KAM3 121545Z 18007KT 08/M06 A3038 RMK A01 T00781056  RH  038%=      5-min Rain = 0
KAM3 121546Z 18007KT 08/M06 A3038 RMK A01 T00791056  RH  038%=      5-min Rain = 0
KAM3 121547Z 19005KT 08/M06 A3038 RMK A01 T00791056  RH  038%=      5-min Rain = 0
KAM3 121548Z 19005KT 08/M06 A3038 RMK A01 T00791056  RH  038%=      5-min Rain = 0
KAM3 121549Z 17003KT 08/M06 A3038 RMK A01 T00801055  RH  038%=      5-min Rain = 0
KAM3 121550Z 17004KT 08/M06 A3038 RMK A01 T00821055  RH  037%=      5-min Rain = 0
KAM3 121551Z 17006KT 08/M05 A3038 RMK A01 T00831054  RH  037%=      5-min Rain = 0
KAM3 121552Z 16006KT 08/M05 A3038 RMK A01 T00841054  RH  037%=      5-min Rain = 0
KAM3 121553Z 17005KT 09/M05 A3038 RMK A01 T00851054  RH  037%=      5-min Rain = 0
KAM3 121554Z 18006KT 09/M05 A3038 RMK A01 T00861053  RH  037%=      5-min Rain = 0
KAM3 121555Z 18005KT 09/M05 A3038 RMK A01 T00871053  RH  037%=      5-min Rain = 0
KAM3 121556Z 20005KT 09/M05 A3038 RMK A01 T00871053  RH  037%=      5-min Rain = 0
KAM3 121557Z 18006KT 09/M05 A3038 RMK A01 T00891051  RH  037%=      5-min Rain = 0
KAM3 121558Z 17006KT 09/M05 A3038 RMK A01 T00901051  RH  037%=      5-min Rain = 0
KAM3 121559Z 18005KT 09/M05 A3038 RMK A01 T00901051  RH  037%=      5-min Rain = 0
KAM3 121600Z 19003KT 09/M05 A3038 RMK A01 T00901050  RH  037%=      5-min Rain = 0
KAM3 121601Z 18007KT 09/M05 A3038 RMK A01 T00911050  RH  037%=      5-min Rain = 0
KAM3 121602Z 18008KT 09/M05 A3038 RMK A01 T00921049  RH  036%=      5-min Rain = 0
KAM3 121603Z 17007KT 09/M05 A3038 RMK A01 T00931050  RH  036%=      5-min Rain = 0
KAM3 121604Z 19007KT 09/M05 A3038 RMK A01 T00931050  RH  036%=      5-min Rain = 0
KAM3 121605Z 18007KT 09/M05 A3037 RMK A01 T00931050  RH  036%=      5-min Rain = 0
KAM3 121606Z 16008KT 09/M05 A3038 RMK A01 T00941049  RH  036%=      5-min Rain = 0
KAM3 121607Z 17008KT 10/M05 A3038 RMK A01 T00971048  RH  036%=      5-min Rain = 0
KAM3 121608Z 17006KT 10/M05 A3038 RMK A01 T00981050  RH  035%=      5-min Rain = 0
KAM3 121609Z 18008KT 10/M05 A3038 RMK A01 T00981049  RH  035%=      5-min Rain = 0
KAM3 121610Z 19006KT 10/M05 A3038 RMK A01 T00981051  RH  035%=      5-min Rain = 0
KAM3 121611Z 20006KT 10/M05 A3038 RMK A01 T00971050  RH  035%=      5-min Rain = 0
KAM3 121612Z 19009KT 10/M05 A3038 RMK A01 T00991051  RH  034%=      5-min Rain = 0
KAM3 121613Z 20008KT 10/M05 A3038 RMK A01 T01011051  RH  034%=      5-min Rain = 0
KAM3 121614Z 20006KT 10/M05 A3038 RMK A01 T00991054  RH  034%=      5-min Rain = 0
KAM3 121615Z 20006KT 10/M05 A3038 RMK A01 T00981053  RH  034%=      5-min Rain = 0
KAM3 121616Z 17005KT 10/M05 A3038 RMK A01 T00981053  RH  034%=      5-min Rain = 0
KAM3 121617Z 18005KT 10/M05 A3037 RMK A01 T00991052  RH  034%=      5-min Rain = 0
KAM3 121618Z 20006KT 10/M06 A3037 RMK A01 T01021055  RH  033%=      5-min Rain = 0
KAM3 121619Z 19007KT 10/M06 A3037 RMK A01 T01021057  RH  032%=      5-min Rain = 0
KAM3 121620Z 20006KT 10/M06 A3037 RMK A01 T01001057  RH  033%=      5-min Rain = 0
KAM3 121621Z 18005KT 10/M05 A3037 RMK A01 T01001054  RH  033%=      5-min Rain = 0
KAM3 121622Z 20005KT 10/M05 A3037 RMK A01 T01041052  RH  033%=      5-min Rain = 0
KAM3 121623Z 21008KT 11/M05 A3037 RMK A01 T01081053  RH  032%=      5-min Rain = 0
KAM3 121624Z 19006KT 11/M06 A3037 RMK A01 T01051056  RH  032%=      5-min Rain = 0
KAM3 121625Z 18005KT 10/M06 A3037 RMK A01 T01021056  RH  032%=      5-min Rain = 0
KAM3 121626Z 18004KT 10/M06 A3037 RMK A01 T01011055  RH  033%=      5-min Rain = 0
KAM3 121627Z 18005KT 10/M06 A3037 RMK A01 T01011056  RH  033%=      5-min Rain = 0
KAM3 121628Z 17007KT 10/M05 A3037 RMK A01 T01031054  RH  033%=      5-min Rain = 0
KAM3 121629Z 16004KT 11/M05 A3037 RMK A01 T01051054  RH  032%=      5-min Rain = 0
KAM3 121630Z 17004KT 11/M05 A3037 RMK A01 T01071053  RH  032%=      5-min Rain = 0
KAM3 121631Z 22005KT 11/M05 A3037 RMK A01 T01081054  RH  032%=      5-min Rain = 0
KAM3 121632Z 20003KT 11/M06 A3037 RMK A01 T01081055  RH  031%=      5-min Rain = 0
KAM3 121633Z 19005KT 11/M05 A3037 RMK A01 T01081054  RH  032%=      5-min Rain = 0
KAM3 121634Z 19005KT 11/M06 A3037 RMK A01 T01101057  RH  031%=      5-min Rain = 0
KAM3 121635Z 20005KT 11/M06 A3036 RMK A01 T01101058  RH  030%=      5-min Rain = 0
KAM3 121636Z 18004KT 11/M06 A3036 RMK A01 T01111058  RH  030%=      5-min Rain = 0
KAM3 121637Z 20004KT 11/M06 A3036 RMK A01 T01121055  RH  031%=      5-min Rain = 0
KAM3 121638Z 21004KT 11/M06 A3036 RMK A01 T01121058  RH  030%=      5-min Rain = 0
KAM3 121639Z 22004KT 11/M06 A3036 RMK A01 T01121061  RH  029%=      5-min Rain = 0
KAM3 121640Z 23005KT 11/M06 A3036 RMK A01 T01111061  RH  029%=      5-min Rain = 0
KAM3 121641Z 21006KT 11/M06 A3036 RMK A01 T01111058  RH  030%=      5-min Rain = 0
KAM3 121642Z 20005KT 11/M06 A3036 RMK A01 T01121058  RH  030%=      5-min Rain = 0
KAM3 121643Z 20004KT 11/M06 A3036 RMK A01 T01121059  RH  030%=      5-min Rain = 0
KAM3 121644Z 14004KT 11/M06 A3036 RMK A01 T01111059  RH  030%=      5-min Rain = 0
KAM3 121645Z 18006KT 11/M06 A3036 RMK A01 T01111059  RH  030%=      5-min Rain = 0
KAM3 121646Z 21005KT 11/M06 A3036 RMK A01 T01121061  RH  029%=      5-min Rain = 0
KAM3 121647Z 20007KT 12/M06 A3036 RMK A01 T01161063  RH  028%=      5-min Rain = 0
KAM3 121648Z 21006KT 12/M07 A3036 RMK A01 T01151067  RH  027%=      5-min Rain = 0
KAM3 121649Z 20003KT 11/M07 A3036 RMK A01 T01131066  RH  028%=      5-min Rain = 0
KAM3 121650Z 22004KT 11/M07 A3036 RMK A01 T01121066  RH  028%=      5-min Rain = 0
KAM3 121651Z 22005KT 11/M07 A3036 RMK A01 T01111067  RH  028%=      5-min Rain = 0
KAM3 121652Z 20003KT 11/M07 A3036 RMK A01 T01121067  RH  028%=      5-min Rain = 0
KAM3 121653Z 16003KT 11/M07 A3036 RMK A01 T01121068  RH  028%=      5-min Rain = 0
KAM3 121654Z 18005KT 11/M06 A3036 RMK A01 T01131064  RH  028%=      5-min Rain = 0
KAM3 121655Z 16006KT 11/M06 A3035 RMK A01 T01141064  RH  028%=      5-min Rain = 0
KAM3 121656Z 17010KT 12/M06 A3035 RMK A01 T01181062  RH  028%=      5-min Rain = 0
KAM3 121657Z 17009KT 12/M06 A3035 RMK A01 T01201064  RH  027%=      5-min Rain = 0
KAM3 121658Z 16010KT 12/M06 A3035 RMK A01 T01201064  RH  027%=      5-min Rain = 0
KAM3 121659Z 16009KT 12/M07 A3035 RMK A01 T01201067  RH  027%=      5-min Rain = 0
KAM3 121700Z 17007G13KT 12/M07 A3035 RMK A01 T01161070  RH  027%=      5-min Rain = 0
KAM3 121701Z 18009KT 12/M07 A3035 RMK A01 T01151067  RH  027%=      5-min Rain = 0
KAM3 121702Z 19005KT 12/M07 A3035 RMK A01 T01151070  RH  027%=      5-min Rain = 0
KAM3 121703Z 17002KT 11/M07 A3035 RMK A01 T01131070  RH  027%=      5-min Rain = 0
KAM3 121704Z 16004KT 11/M07 A3035 RMK A01 T01131072  RH  027%=      5-min Rain = 0
KAM3 121705Z 15005KT 11/M07 A3035 RMK A01 T01141071  RH  027%=      5-min Rain = 0
KAM3 121706Z 14006KT 12/M07 A3035 RMK A01 T01151071  RH  026%=      5-min Rain = 0
KAM3 121707Z 15006KT 12/M07 A3035 RMK A01 T01151071  RH  026%=      5-min Rain = 0
KAM3 121708Z 19004KT 12/M07 A3035 RMK A01 T01171070  RH  026%=      5-min Rain = 0
KAM3 121709Z 22007KT 12/M07 A3035 RMK A01 T01201067  RH  027%=      5-min Rain = 0
KAM3 121710Z 22006KT 12/M07 A3035 RMK A01 T01201069  RH  026%=      5-min Rain = 0
KAM3 121711Z 21005KT 12/M07 A3035 RMK A01 T01181069  RH  026%=      5-min Rain = 0
KAM3 121712Z 18003KT 12/M07 A3035 RMK A01 T01171068  RH  027%=      5-min Rain = 0
KAM3 121713Z 19003KT 12/M07 A3035 RMK A01 T01191065  RH  027%=      5-min Rain = 0
KAM3 121714Z 15008KT 12/M06 A3035 RMK A01 T01211063  RH  027%=      5-min Rain = 0
KAM3 121715Z 17006KT 12/M07 A3035 RMK A01 T01221066  RH  026%=      5-min Rain = 0
KAM3 121716Z 18005KT 12/M07 A3035 RMK A01 T01211066  RH  026%=      5-min Rain = 0
KAM3 121717Z 20008KT 12/M07 A3035 RMK A01 T01211066  RH  027%=      5-min Rain = 0
KAM3 121718Z 20007KT 12/M07 A3034 RMK A01 T01211069  RH  026%=      5-min Rain = 0
KAM3 121719Z 20008KT 12/M07 A3034 RMK A01 T01191069  RH  026%=      5-min Rain = 0
KAM3 121720Z 22006KT 12/M07 A3034 RMK A01 T01171071  RH  026%=      5-min Rain = 0
KAM3 121721Z 24003KT 11/M07 A3034 RMK A01 T01141070  RH  027%=      5-min Rain = 0
KAM3 121722Z 22002KT 11/M07 A3034 RMK A01 T01141070  RH  027%=      5-min Rain = 0
KAM3 121723Z 20005KT 12/M07 A3034 RMK A01 T01151069  RH  027%=      5-min Rain = 0
KAM3 121724Z 14006KT 12/M07 A3034 RMK A01 T01221070  RH  026%=      5-min Rain = 0
KAM3 121725Z 13007KT 13/M08 A3034 RMK A01 T01271078  RH  023%=      5-min Rain = 0
KAM3 121726Z 16006KT 13/M08 A3034 RMK A01 T01281076  RH  023%=      5-min Rain = 0
KAM3 121727Z 18007KT 13/M07 A3034 RMK A01 T01261071  RH  025%=      5-min Rain = 0
KAM3 121728Z 16007G12KT 12/M07 A3034 RMK A01 T01231070  RH  025%=      5-min Rain = 0
KAM3 121729Z 15007KT 12/M07 A3034 RMK A01 T01241069  RH  025%=      5-min Rain = 0
KAM3 121730Z 14005KT 13/M07 A3034 RMK A01 T01281071  RH  024%=      5-min Rain = 0
KAM3 121731Z 16005KT 13/M08 A3034 RMK A01 T01281076  RH  023%=      5-min Rain = 0
KAM3 121732Z 20003KT 12/M07 A3034 RMK A01 T01241074  RH  024%=      5-min Rain = 0
KAM3 121733Z 21004G10KT 12/M07 A3034 RMK A01 T01211072  RH  025%=      5-min Rain = 0
KAM3 121734Z 20008KT 12/M08 A3034 RMK A01 T01211076  RH  025%=      5-min Rain = 0
KAM3 121735Z 22010KT 12/M08 A3034 RMK A01 T01231078  RH  024%=      5-min Rain = 0
KAM3 121736Z 25006KT 13/M08 A3034 RMK A01 T01251081  RH  023%=      5-min Rain = 0
KAM3 121737Z 22005KT 12/M08 A3034 RMK A01 T01231081  RH  023%=      5-min Rain = 0
KAM3 121738Z 22005KT 12/M08 A3034 RMK A01 T01221082  RH  023%=      5-min Rain = 0
KAM3 121739Z 21004KT 12/M08 A3034 RMK A01 T01221083  RH  023%=      5-min Rain = 0
KAM3 121740Z 17004KT 12/M08 A3034 RMK A01 T01211082  RH  023%=      5-min Rain = 0
KAM3 121741Z 14005KT 12/M08 A3033 RMK A01 T01211077  RH  024%=      5-min Rain = 0
KAM3 121742Z 14004KT 12/M07 A3033 RMK A01 T01231073  RH  025%=      5-min Rain = 0
KAM3 121743Z 12006KT 13/M07 A3033 RMK A01 T01281069  RH  025%=      5-min Rain = 0
KAM3 121744Z 18008KT 13/M07 A3033 RMK A01 T01301072  RH  024%=      5-min Rain = 0
KAM3 121745Z 19008G13KT 13/M08 A3033 RMK A01 T01301076  RH  023%=      5-min Rain = 0
KAM3 121746Z 20010KT 13/M08 A3033 RMK A01 T01311078  RH  023%=      5-min Rain = 0
KAM3 121747Z 19008KT 13/M08 A3033 RMK A01 T01291083  RH  022%=      5-min Rain = 0
KAM3 121748Z 20003G8KT 13/M09 A3033 RMK A01 T01271086  RH  022%=      5-min Rain = 0
KAM3 121749Z 20008KT 13/M09 A3033 RMK A01 T01271086  RH  022%=      5-min Rain = 0
KAM3 121750Z 20005KT 13/M09 A3033 RMK A01 T01261087  RH  022%=      5-min Rain = 0
KAM3 121751Z 22007KT 12/M09 A3033 RMK A01 T01241087  RH  022%=      5-min Rain = 0
KAM3 121752Z 22008KT 13/M08 A3033 RMK A01 T01281082  RH  022%=      5-min Rain = 0
KAM3 121753Z 21006KT 13/M08 A3033 RMK A01 T01301084  RH  022%=      5-min Rain = 0
KAM3 121754Z 24003KT 13/M09 A3033 RMK A01 T01281085  RH  022%=      5-min Rain = 0
KAM3 121755Z 28002KT 13/M09 A3033 RMK A01 T01261088  RH  022%=      5-min Rain = 0
KAM3 121756Z 25004KT 13/M09 A3033 RMK A01 T01251088  RH  022%=      5-min Rain = 0
KAM3 121757Z 26004KT 13/M09 A3033 RMK A01 T01261088  RH  022%=      5-min Rain = 0
KAM3 121758Z 23003KT 13/M09 A3033 RMK A01 T01251089  RH  022%=      5-min Rain = 0
KAM3 121759Z 19006KT 13/M09 A3033 RMK A01 T01261086  RH  022%=      5-min Rain = 0
KAM3 121800Z 19008G14KT 13/M09 A3033 RMK A01 T01321087  RH  021%=      5-min Rain = 0
KAM3 121801Z 18013KT 13/M09 A3033 RMK A01 T01341091  RH  020%=      5-min Rain = 0
KAM3 121802Z 18011KT 14/M09 A3033 RMK A01 T01351094  RH  019%=      5-min Rain = 0
KAM3 121803Z 20010KT 13/M09 A3033 RMK A01 T01331092  RH  020%=      5-min Rain = 0
KAM3 121804Z 20007KT 13/M09 A3033 RMK A01 T01341088  RH  020%=      5-min Rain = 0
KAM3 121805Z 20004KT 14/M09 A3033 RMK A01 T01351090  RH  020%=      5-min Rain = 0
KAM3 121806Z 21002KT 13/M09 A3033 RMK A01 T01301091  RH  021%=      5-min Rain = 0
KAM3 121807Z 16003KT 13/M09 A3033 RMK A01 T01291088  RH  021%=      5-min Rain = 0
KAM3 121808Z 13004KT 13/M09 A3032 RMK A01 T01321088  RH  021%=      5-min Rain = 0
KAM3 121809Z 12003KT 13/M09 A3032 RMK A01 T01321091  RH  020%=      5-min Rain = 0
KAM3 121810Z 12004KT 13/M09 A3032 RMK A01 T01331089  RH  021%=      5-min Rain = 0
KAM3 121811Z 20005KT 14/M09 A3032 RMK A01 T01361086  RH  020%=      5-min Rain = 0
KAM3 121812Z 18008KT 14/M09 A3032 RMK A01 T01391085  RH  020%=      5-min Rain = 0
KAM3 121813Z 19006KT 14/M09 A3032 RMK A01 T01361088  RH  020%=      5-min Rain = 0
KAM3 121814Z 21004KT 14/M08 A3032 RMK A01 T01351084  RH  021%=      5-min Rain = 0
KAM3 121815Z 19005KT 14/M08 A3032 RMK A01 T01361083  RH  021%=      5-min Rain = 0
KAM3 121816Z 19010G15KT 14/M09 A3032 RMK A01 T01361087  RH  020%=      5-min Rain = 0
KAM3 121817Z 18011KT 14/M09 A3032 RMK A01 T01361087  RH  020%=      5-min Rain = 0
KAM3 121818Z 16009KT 14/M09 A3032 RMK A01 T01361087  RH  020%=      5-min Rain = 0
KAM3 121819Z 17009KT 14/M08 A3032 RMK A01 T01391083  RH  021%=      5-min Rain = 0
KAM3 121820Z 16008KT 14/M09 A3032 RMK A01 T01431085  RH  020%=      5-min Rain = 0
KAM3 121821Z 13003KT 14/M09 A3032 RMK A01 T01391090  RH  020%=      5-min Rain = 0
KAM3 121822Z 14009KT 14/M09 A3032 RMK A01 T01361088  RH  020%=      5-min Rain = 0
KAM3 121823Z 14006KT 14/M09 A3032 RMK A01 T01381087  RH  020%=      5-min Rain = 0
KAM3 121824Z 13006KT 14/M09 A3032 RMK A01 T01391088  RH  020%=      5-min Rain = 0
KAM3 121825Z 18005KT 14/M09 A3032 RMK A01 T01371088  RH  020%=      5-min Rain = 0
KAM3 121826Z 18008KT 14/M09 A3032 RMK A01 T01371088  RH  020%=      5-min Rain = 0
KAM3 121827Z 21009KT 14/M09 A3032 RMK A01 T01391088  RH  020%=      5-min Rain = 0
KAM3 121828Z 20006KT 14/M09 A3032 RMK A01 T01401090  RH  019%=      5-min Rain = 0
KAM3 121829Z 18008KT 14/M09 A3032 RMK A01 T01381090  RH  020%=      5-min Rain = 0
KAM3 121830Z 18008KT 14/M09 A3032 RMK A01 T01381090  RH  020%=      5-min Rain = 0
KAM3 121831Z 21007KT 14/M09 A3032 RMK A01 T01391090  RH  020%=      5-min Rain = 0
KAM3 121832Z 24005KT 14/M09 A3031 RMK A01 T01391089  RH  020%=      5-min Rain = 0
KAM3 121833Z 25007KT 14/M09 A3031 RMK A01 T01431088  RH  019%=      5-min Rain = 0
KAM3 121834Z 23007KT 14/M09 A3031 RMK A01 T01441089  RH  019%=      5-min Rain = 0
KAM3 121835Z 21008KT 14/M09 A3031 RMK A01 T01441088  RH  019%=      5-min Rain = 0
KAM3 121836Z 22006KT 14/M09 A3031 RMK A01 T01421092  RH  019%=      5-min Rain = 0
KAM3 121837Z 26003KT 14/M09 A3031 RMK A01 T01381092  RH  019%=      5-min Rain = 0
KAM3 121838Z 28001KT 14/M09 A3031 RMK A01 T01361093  RH  019%=      5-min Rain = 0
KAM3 121839Z 22001KT 13/M09 A3031 RMK A01 T01341092  RH  020%=      5-min Rain = 0
KAM3 121840Z 26003KT 13/M09 A303 RMK A01 T01341091  RH  020%=      5-min Rain = 0
KAM3 121841Z 22009G14KT 14/M09 A303 RMK A01 T01371089  RH  020%=      5-min Rain = 0
KAM3 121842Z 22010KT 14/M09 A303 RMK A01 T01411087  RH  020%=      5-min Rain = 0
KAM3 121843Z 21008KT 14/M09 A3031 RMK A01 T01431089  RH  019%=      5-min Rain = 0
KAM3 121844Z 23004KT 14/M09 A3031 RMK A01 T01411091  RH  019%=      5-min Rain = 0
KAM3 121845Z 25004KT 14/M09 A303 RMK A01 T01391091  RH  019%=      5-min Rain = 0
KAM3 121846Z 26003KT 14/M09 A303 RMK A01 T01371094  RH  019%=      5-min Rain = 0
KAM3 121847Z 23004KT 14/M09 A303 RMK A01 T01371093  RH  019%=      5-min Rain = 0
KAM3 121848Z 16005KT 14/M09 A303 RMK A01 T01371092  RH  019%=      5-min Rain = 0
KAM3 121849Z 17005KT 14/M09 A303 RMK A01 T01371091  RH  020%=      5-min Rain = 0
KAM3 121850Z 20007KT 14/M09 A303 RMK A01 T01391090  RH  019%=      5-min Rain = 0
KAM3 121851Z 21005KT 14/M09 A303 RMK A01 T01381093  RH  019%=      5-min Rain = 0
KAM3 121852Z 18004KT 14/M09 A303 RMK A01 T01361092  RH  020%=      5-min Rain = 0
KAM3 121853Z 17010KT 14/M09 A303 RMK A01 T01381089  RH  020%=      5-min Rain = 0
KAM3 121854Z 18008KT 14/M09 A303 RMK A01 T01401089  RH  020%=      5-min Rain = 0
KAM3 121855Z 18008KT 14/M09 A303 RMK A01 T01401090  RH  019%=      5-min Rain = 0
KAM3 121856Z 19006KT 14/M09 A303 RMK A01 T01401090  RH  019%=      5-min Rain = 0
KAM3 121857Z 17011KT 14/M09 A303 RMK A01 T01401090  RH  019%=      5-min Rain = 0
KAM3 121858Z 17008KT 14/M09 A303 RMK A01 T01421090  RH  019%=      5-min Rain = 0
KAM3 121859Z 20011KT 14/M09 A303 RMK A01 T01421090  RH  019%=      5-min Rain = 0
KAM3 121900Z 20011KT 14/M09 A303 RMK A01 T01431090  RH  019%=      5-min Rain = 0
KAM3 121901Z 20006KT 14/M09 A303 RMK A01 T01421091  RH  019%=      5-min Rain = 0
KAM3 121902Z 18008KT 14/M09 A303 RMK A01 T01411091  RH  019%=      5-min Rain = 0
KAM3 121903Z 18010KT 14/M09 A3029 RMK A01 T01431089  RH  019%=      5-min Rain = 0
KAM3 121904Z 15007KT 14/M09 A3029 RMK A01 T01441090  RH  019%=      5-min Rain = 0
KAM3 121905Z 15006KT 14/M09 A3029 RMK A01 T01441089  RH  019%=      5-min Rain = 0
KAM3 121906Z 17010KT 15/M09 A3029 RMK A01 T01471087  RH  019%=      5-min Rain = 0
KAM3 121907Z 15009KT 15/M09 A3029 RMK A01 T01521087  RH  018%=      5-min Rain = 0
KAM3 121908Z 20006KT 15/M09 A3029 RMK A01 T01501091  RH  018%=      5-min Rain = 0
KAM3 121909Z 21009KT 15/M09 A3029 RMK A01 T01481090  RH  019%=      5-min Rain = 0
KAM3 121910Z 22008KT 15/M09 A3029 RMK A01 T01481090  RH  019%=      5-min Rain = 0
KAM3 121911Z 21006KT 15/M09 A3029 RMK A01 T01471090  RH  019%=      5-min Rain = 0
KAM3 121912Z 23008KT 15/M09 A3029 RMK A01 T01481088  RH  019%=      5-min Rain = 0
KAM3 121913Z 24009KT 15/M09 A3029 RMK A01 T01531087  RH  018%=      5-min Rain = 0
KAM3 121914Z 22009KT 15/M09 A3029 RMK A01 T01541090  RH  018%=      5-min Rain = 0
KAM3 121915Z 20011KT 15/M09 A3029 RMK A01 T01521091  RH  018%=      5-min Rain = 0
KAM3 121916Z 18011KT 15/M09 A3029 RMK A01 T01521090  RH  018%=      5-min Rain = 0
KAM3 121917Z 18010KT 15/M09 A3028 RMK A01 T01511092  RH  018%=      5-min Rain = 0
KAM3 121918Z 18009KT 15/M09 A3028 RMK A01 T01491092  RH  018%=      5-min Rain = 0
KAM3 121919Z 20009KT 15/M09 A3028 RMK A01 T01511091  RH  018%=      5-min Rain = 0
KAM3 121920Z 20008KT 15/M09 A3028 RMK A01 T01521093  RH  018%=      5-min Rain = 0
KAM3 121921Z 18008KT 15/M09 A3028 RMK A01 T01511093  RH  018%=      5-min Rain = 0
KAM3 121922Z 20006KT 15/M09 A3028 RMK A01 T01511091  RH  018%=      5-min Rain = 0
KAM3 121923Z 22006KT 15/M09 A3028 RMK A01 T01491092  RH  018%=      5-min Rain = 0
KAM3 121924Z 21003KT 15/M09 A3028 RMK A01 T01481092  RH  018%=      5-min Rain = 0
KAM3 121925Z 25002KT 15/M09 A3028 RMK A01 T01481092  RH  018%=      5-min Rain = 0
KAM3 121926Z 24002KT 15/M09 A3028 RMK A01 T01481091  RH  018%=      5-min Rain = 0
KAM3 121927Z 13005KT 15/M09 A3028 RMK A01 T01481091  RH  018%=      5-min Rain = 0
KAM3 121928Z 23004KT 15/M09 A3028 RMK A01 T01501088  RH  018%=      5-min Rain = 0
KAM3 121929Z 23009KT 16/M09 A3027 RMK A01 T01551087  RH  018%=      5-min Rain = 0
KAM3 121930Z 23010KT 16/M09 A3027 RMK A01 T01561088  RH  018%=      5-min Rain = 0
KAM3 121931Z 21012G17KT 16/M09 A3027 RMK A01 T01581086  RH  018%=      5-min Rain = 0
KAM3 121932Z 21011KT 16/M09 A3027 RMK A01 T01581089  RH  017%=      5-min Rain = 0
KAM3 121933Z 22009KT 15/M09 A3027 RMK A01 T01541091  RH  018%=      5-min Rain = 0
KAM3 121934Z 22008KT 15/M09 A3027 RMK A01 T01511091  RH  018%=      5-min Rain = 0
KAM3 121935Z 20006KT 15/M09 A3027 RMK A01 T01491091  RH  018%=      5-min Rain = 0
KAM3 121936Z 17008KT 15/M09 A3027 RMK A01 T01511088  RH  018%=      5-min Rain = 0
KAM3 121937Z 16010KT 16/M09 A3027 RMK A01 T01571086  RH  018%=      5-min Rain = 0
KAM3 121938Z 17008KT 16/M09 A3027 RMK A01 T01571088  RH  018%=      5-min Rain = 0
KAM3 121939Z 20005KT 16/M09 A3027 RMK A01 T01571088  RH  018%=      5-min Rain = 0
KAM3 121940Z 15003KT 16/M09 A3027 RMK A01 T01561086  RH  018%=      5-min Rain = 0
KAM3 121941Z 17004KT 16/M09 A3027 RMK A01 T01581086  RH  018%=      5-min Rain = 0
KAM3 121942Z 22004KT 16/M09 A3027 RMK A01 T01591087  RH  018%=      5-min Rain = 0
KAM3 121943Z 18004KT 16/M09 A3027 RMK A01 T01591087  RH  018%=      5-min Rain = 0
KAM3 121944Z 23006KT 16/M09 A3027 RMK A01 T01601086  RH  018%=      5-min Rain = 0
KAM3 121945Z 24005KT 16/M09 A3026 RMK A01 T01601085  RH  018%=      5-min Rain = 0
KAM3 121946Z 21007KT 16/M08 A3026 RMK A01 T01611084  RH  018%=      5-min Rain = 0
KAM3 121947Z 22006KT 16/M08 A3026 RMK A01 T01631084  RH  018%=      5-min Rain = 0
KAM3 121948Z 18007KT 16/M08 A3026 RMK A01 T01631083  RH  018%=      5-min Rain = 0
KAM3 121949Z 17010KT 16/M08 A3026 RMK A01 T01621084  RH  018%=      5-min Rain = 0
KAM3 121950Z 17007KT 16/M09 A3026 RMK A01 T01571086  RH  018%=      5-min Rain = 0
KAM3 121951Z 19005KT 16/M08 A3026 RMK A01 T01551084  RH  018%=      5-min Rain = 0
KAM3 121952Z 21014KT 16/M09 A3026 RMK A01 T01571085  RH  018%=      5-min Rain = 0
KAM3 121953Z 20010KT 16/M09 A3026 RMK A01 T01571085  RH  018%=      5-min Rain = 0
KAM3 121954Z 20008KT 16/M09 A3026 RMK A01 T01561085  RH  018%=      5-min Rain = 0
KAM3 121955Z 20011KT 16/M08 A3026 RMK A01 T01581084  RH  018%=      5-min Rain = 0
KAM3 121956Z 20011KT 16/M09 A3026 RMK A01 T01611085  RH  018%=      5-min Rain = 0
KAM3 121957Z 18009KT 16/M09 A3026 RMK A01 T01601087  RH  017%=      5-min Rain = 0
KAM3 121958Z 19007KT 16/M09 A3026 RMK A01 T01581087  RH  018%=      5-min Rain = 0
KAM3 121959Z 23009KT 16/M09 A3025 RMK A01 T01571086  RH  018%=      5-min Rain = 0
KAM3 122000Z 20009KT 16/M09 A3025 RMK A01 T01591086  RH  018%=      5-min Rain = 0
KAM3 122001Z 20008KT 16/M09 A3025 RMK A01 T01581088  RH  018%=      5-min Rain = 0
KAM3 122002Z 18005KT 16/M09 A3025 RMK A01 T01561088  RH  018%=      5-min Rain = 0
KAM3 122003Z 18008KT 15/M09 A3025 RMK A01 T01541087  RH  018%=      5-min Rain = 0
KAM3 122004Z 19007KT 16/M09 A3025 RMK A01 T01581086  RH  018%=      5-min Rain = 0
KAM3 122005Z 18006KT 16/M09 A3025 RMK A01 T01571087  RH  018%=      5-min Rain = 0
KAM3 122006Z 20005KT 16/M08 A3025 RMK A01 T01551084  RH  019%=      5-min Rain = 0
KAM3 122007Z 19003KT 16/M09 A3025 RMK A01 T01551087  RH  018%=      5-min Rain = 0
KAM3 122008Z 20004KT 15/M09 A3025 RMK A01 T01521088  RH  018%=      5-min Rain = 0
KAM3 122009Z 17007KT 15/M09 A3025 RMK A01 T01521085  RH  019%=      5-min Rain = 0
KAM3 122010Z 16010G17KT 16/M08 A3025 RMK A01 T01581081  RH  018%=      5-min Rain = 0
KAM3 122011Z 20012G18KT 16/M08 A3024 RMK A01 T01611083  RH  018%=      5-min Rain = 0
KAM3 122012Z 19011KT 16/M08 A3025 RMK A01 T01611084  RH  018%=      5-min Rain = 0
KAM3 122013Z 17008KT 16/M09 A3025 RMK A01 T01591086  RH  018%=      5-min Rain = 0
KAM3 122014Z 20007KT 16/M08 A3025 RMK A01 T01601081  RH  018%=      5-min Rain = 0
KAM3 122015Z 19007G15KT 16/M08 A3024 RMK A01 T01601083  RH  018%=      5-min Rain = 0
KAM3 122016Z 17010KT 16/M08 A3024 RMK A01 T01601084  RH  018%=      5-min Rain = 0
KAM3 122017Z 18012KT 16/M09 A3024 RMK A01 T01601086  RH  018%=      5-min Rain = 0
KAM3 122018Z 17013KT 16/M09 A3024 RMK A01 T01601085  RH  018%=      5-min Rain = 0
KAM3 122019Z 18012KT 16/M08 A3024 RMK A01 T01621083  RH  018%=      5-min Rain = 0
KAM3 122020Z 16009KT 16/M08 A3024 RMK A01 T01621084  RH  018%=      5-min Rain = 0
KAM3 122021Z 15008KT 16/M09 A3024 RMK A01 T01581085  RH  018%=      5-min Rain = 0
KAM3 122022Z 17006KT 16/M08 A3024 RMK A01 T01571084  RH  018%=      5-min Rain = 0
KAM3 122023Z 16004KT 16/M09 A3024 RMK A01 T01581085  RH  018%=      5-min Rain = 0
KAM3 122024Z 18006KT 16/M08 A3024 RMK A01 T01591084  RH  018%=      5-min Rain = 0
KAM3 122025Z 16004KT 16/M09 A3024 RMK A01 T01591086  RH  018%=      5-min Rain = 0
KAM3 122026Z 18007G12KT 16/M08 A3024 RMK A01 T01571084  RH  018%=      5-min Rain = 0
KAM3 122027Z 19010KT 16/M09 A3024 RMK A01 T01581086  RH  018%=      5-min Rain = 0
KAM3 122028Z 20009KT 16/M08 A3024 RMK A01 T01591083  RH  018%=      5-min Rain = 0
KAM3 122029Z 20008KT 16/M08 A3024 RMK A01 T01641083  RH  018%=      5-min Rain = 0
KAM3 122030Z 24008KT 17/M08 A3024 RMK A01 T01651084  RH  017%=      5-min Rain = 0
KAM3 122031Z 22009KT 17/M08 A3024 RMK A01 T01671082  RH  017%=      5-min Rain = 0
KAM3 122032Z 19011KT 17/M08 A3024 RMK A01 T01691084  RH  017%=      5-min Rain = 0
KAM3 122033Z 18008KT 17/M09 A3024 RMK A01 T01661088  RH  017%=      5-min Rain = 0
KAM3 122034Z 18009G15KT 16/M09 A3024 RMK A01 T01621087  RH  017%=      5-min Rain = 0
KAM3 122035Z 19010KT 16/M09 A3024 RMK A01 T01611086  RH  017%=      5-min Rain = 0
KAM3 122036Z 17008KT 16/M09 A3023 RMK A01 T01601087  RH  018%=      5-min Rain = 0
KAM3 122037Z 19011KT 16/M09 A3023 RMK A01 T01601085  RH  018%=      5-min Rain = 0
KAM3 122038Z 19012KT 16/M09 A3023 RMK A01 T01631085  RH  017%=      5-min Rain = 0
KAM3 122039Z 21011KT 16/M09 A3023 RMK A01 T01621087  RH  017%=      5-min Rain = 0
KAM3 122040Z 21013KT 16/M09 A3023 RMK A01 T01611087  RH  017%=      5-min Rain = 0
KAM3 122041Z 21010KT 16/M09 A3023 RMK A01 T01601087  RH  017%=      5-min Rain = 0
KAM3 122042Z 19011KT 16/M08 A3023 RMK A01 T01631083  RH  018%=      5-min Rain = 0
KAM3 122043Z 18012KT 17/M08 A3023 RMK A01 T01671081  RH  018%=      5-min Rain = 0
KAM3 122044Z 18010KT 17/M08 A3023 RMK A01 T01681080  RH  018%=      5-min Rain = 0
KAM3 122045Z 18008KT 17/M08 A3023 RMK A01 T01691082  RH  017%=      5-min Rain = 0
KAM3 122046Z 16008KT 17/M08 A3023 RMK A01 T01661082  RH  018%=      5-min Rain = 0
KAM3 122047Z 15007KT 17/M08 A3023 RMK A01 T01651084  RH  017%=      5-min Rain = 0
KAM3 122048Z 14007KT 16/M09 A3023 RMK A01 T01611086  RH  017%=      5-min Rain = 0
KAM3 122049Z 16010KT 16/M09 A3023 RMK A01 T01601085  RH  018%=      5-min Rain = 0
KAM3 122050Z 15006KT 16/M09 A3023 RMK A01 T01611086  RH  017%=      5-min Rain = 0
KAM3 122051Z 16006KT 16/M09 A3023 RMK A01 T01601087  RH  018%=      5-min Rain = 0
KAM3 122052Z 20014KT 16/M09 A3022 RMK A01 T01601086  RH  018%=      5-min Rain = 0
KAM3 122053Z 20012KT 16/M09 A3022 RMK A01 T01621086  RH  017%=      5-min Rain = 0
KAM3 122054Z 20009KT 16/M09 A3022 RMK A01 T01621087  RH  017%=      5-min Rain = 0
KAM3 122055Z 21008KT 16/M09 A3022 RMK A01 T01621087  RH  017%=      5-min Rain = 0
KAM3 122056Z 22007KT 16/M09 A3022 RMK A01 T01621086  RH  017%=      5-min Rain = 0
KAM3 122057Z 22008KT 16/M09 A3022 RMK A01 T01621087  RH  017%=      5-min Rain = 0
KAM3 122058Z 22010KT 16/M09 A3022 RMK A01 T01641085  RH  017%=      5-min Rain = 0
KAM3 122059Z 21009KT 17/M09 A3022 RMK A01 T01661087  RH  017%=      5-min Rain = 0
KAM3 122100Z 21011KT 17/M09 A3022 RMK A01 T01671087  RH  017%=      5-min Rain = 0
KAM3 122101Z 19012KT 17/M09 A3022 RMK A01 T01671086  RH  017%=      5-min Rain = 0
KAM3 122102Z 19011KT 17/M09 A3022 RMK A01 T01681088  RH  016%=      5-min Rain = 0
KAM3 122103Z 17009KT 17/M09 A3022 RMK A01 T01681088  RH  016%=      5-min Rain = 0
KAM3 122104Z 18005KT 16/M09 A3022 RMK A01 T01641092  RH  016%=      5-min Rain = 0
KAM3 122105Z 19004KT 16/M09 A3022 RMK A01 T01601092  RH  017%=      5-min Rain = 0
KAM3 122106Z 21008G13KT 16/M09 A3022 RMK A01 T01601090  RH  017%=      5-min Rain = 0
KAM3 122107Z 21010KT 16/M09 A3021 RMK A01 T01611088  RH  017%=      5-min Rain = 0
KAM3 122108Z 21012KT 16/M09 A3021 RMK A01 T01631085  RH  017%=      5-min Rain = 0
KAM3 122109Z 21015KT 17/M09 A3021 RMK A01 T01671086  RH  017%=      5-min Rain = 0
KAM3 122110Z 21013KT 17/M09 A3021 RMK A01 T01671087  RH  017%=      5-min Rain = 0
KAM3 122111Z 22010KT 17/M09 A3021 RMK A01 T01671088  RH  017%=      5-min Rain = 0
KAM3 122112Z 24008KT 17/M09 A3021 RMK A01 T01671089  RH  017%=      5-min Rain = 0
KAM3 122113Z 22008KT 17/M09 A3021 RMK A01 T01661088  RH  017%=      5-min Rain = 0
KAM3 122114Z 22006KT 16/M09 A3021 RMK A01 T01641090  RH  017%=      5-min Rain = 0
KAM3 122115Z 23007KT 16/M09 A3021 RMK A01 T01611089  RH  017%=      5-min Rain = 0
KAM3 122116Z 23007KT 16/M09 A3021 RMK A01 T01621088  RH  017%=      5-min Rain = 0
KAM3 122117Z 21007KT 16/M09 A3021 RMK A01 T01631087  RH  017%=      5-min Rain = 0
KAM3 122118Z 22011KT 17/M09 A3021 RMK A01 T01671086  RH  017%=      5-min Rain = 0
KAM3 122119Z 22012KT 17/M09 A3021 RMK A01 T01671088  RH  017%=      5-min Rain = 0
KAM3 122120Z 21011KT 17/M09 A3021 RMK A01 T01661089  RH  016%=      5-min Rain = 0
KAM3 122121Z 21010KT 17/M09 A3021 RMK A01 T01651090  RH  016%=      5-min Rain = 0
KAM3 122122Z 23009KT 17/M09 A3021 RMK A01 T01661090  RH  016%=      5-min Rain = 0
KAM3 122123Z 22009KT 16/M09 A3021 RMK A01 T01641091  RH  016%=      5-min Rain = 0
KAM3 122124Z 21008KT 16/M09 A3021 RMK A01 T01631091  RH  017%=      5-min Rain = 0
KAM3 122125Z 21009KT 16/M09 A302 RMK A01 T01621090  RH  017%=      5-min Rain = 0
KAM3 122126Z 19010KT 16/M09 A302 RMK A01 T01641089  RH  017%=      5-min Rain = 0
KAM3 122127Z 21012KT 17/M09 A302 RMK A01 T01661089  RH  017%=      5-min Rain = 0
KAM3 122128Z 20008KT 17/M09 A302 RMK A01 T01671089  RH  016%=      5-min Rain = 0
KAM3 122129Z 20007KT 17/M09 A302 RMK A01 T01691088  RH  016%=      5-min Rain = 0
KAM3 122130Z 18009KT 17/M09 A302 RMK A01 T01701088  RH  016%=      5-min Rain = 0
KAM3 122131Z 17012KT 17/M09 A302 RMK A01 T01691088  RH  016%=      5-min Rain = 0
KAM3 122132Z 16007G13KT 17/M09 A302 RMK A01 T01671088  RH  017%=      5-min Rain = 0
KAM3 122133Z 17005KT 16/M09 A302 RMK A01 T01641089  RH  017%=      5-min Rain = 0
KAM3 122134Z 19005KT 16/M09 A302 RMK A01 T01641088  RH  017%=      5-min Rain = 0
KAM3 122135Z 19006KT 16/M09 A302 RMK A01 T01641087  RH  017%=      5-min Rain = 0
KAM3 122136Z 18007KT 17/M09 A302 RMK A01 T01651086  RH  017%=      5-min Rain = 0
KAM3 122137Z 18011KT 17/M09 A302 RMK A01 T01661086  RH  017%=      5-min Rain = 0
KAM3 122138Z 20011KT 17/M09 A302 RMK A01 T01681085  RH  017%=      5-min Rain = 0
KAM3 122139Z 20010KT 17/M08 A302 RMK A01 T01701084  RH  017%=      5-min Rain = 0
KAM3 122140Z 19013KT 17/M09 A302 RMK A01 T01701087  RH  016%=      5-min Rain = 0
KAM3 122141Z 17011KT 17/M09 A3019 RMK A01 T01671087  RH  017%=      5-min Rain = 0
KAM3 122142Z 17010KT 17/M09 A3019 RMK A01 T01661087  RH  017%=      5-min Rain = 0
KAM3 122143Z 21009KT 17/M09 A3019 RMK A01 T01671086  RH  017%=      5-min Rain = 0
KAM3 122144Z 22008KT 17/M09 A3019 RMK A01 T01661088  RH  017%=      5-min Rain = 0
KAM3 122145Z 22008KT 17/M09 A3019 RMK A01 T01651086  RH  017%=      5-min Rain = 0
KAM3 122146Z 22009KT 17/M09 A3019 RMK A01 T01661087  RH  017%=      5-min Rain = 0
KAM3 122147Z 23012KT 17/M09 A3019 RMK A01 T01661087  RH  017%=      5-min Rain = 0
KAM3 122148Z 23009KT 17/M09 A3019 RMK A01 T01651088  RH  017%=      5-min Rain = 0
KAM3 122149Z 21010KT 17/M09 A3019 RMK A01 T01651087  RH  017%=      5-min Rain = 0
KAM3 122150Z 22009KT 17/M09 A3019 RMK A01 T01661087  RH  017%=      5-min Rain = 0
KAM3 122151Z 22006KT 17/M09 A3019 RMK A01 T01651087  RH  017%=      5-min Rain = 0
KAM3 122152Z 21008KT 17/M09 A3019 RMK A01 T01661086  RH  017%=      5-min Rain = 0
KAM3 122153Z 19006KT 17/M09 A3019 RMK A01 T01661088  RH  017%=      5-min Rain = 0
KAM3 122154Z 17011KT 17/M09 A3019 RMK A01 T01651087  RH  017%=      5-min Rain = 0
KAM3 122155Z 20011KT 17/M09 A3019 RMK A01 T01661086  RH  017%=      5-min Rain = 0
KAM3 122156Z 19009KT 17/M09 A3019 RMK A01 T01661087  RH  017%=      5-min Rain = 0
KAM3 122157Z 18012KT 17/M09 A3019 RMK A01 T01661086  RH  017%=      5-min Rain = 0
KAM3 122158Z 18009KT 17/M09 A3019 RMK A01 T01661086  RH  017%=      5-min Rain = 0
KAM3 122159Z 18004KT 17/M09 A3019 RMK A01 T01651087  RH  017%=      5-min Rain = 0
KAM3 122200Z 16007KT 16/M09 A3019 RMK A01 T01641087  RH  017%=      5-min Rain = 0
KAM3 122201Z 15008KT 17/M09 A3019 RMK A01 T01651086  RH  017%=      5-min Rain = 0
KAM3 122202Z 17008KT 17/M09 A3019 RMK A01 T01651087  RH  017%=      5-min Rain = 0
KAM3 122203Z 15007KT 17/M09 A3019 RMK A01 T01651086  RH  017%=      5-min Rain = 0
KAM3 122204Z 17010KT 17/M09 A3019 RMK A01 T01651086  RH  017%=      5-min Rain = 0
KAM3 122205Z 17010KT 17/M09 A3019 RMK A01 T01661086  RH  017%=      5-min Rain = 0
KAM3 122206Z 16006KT 16/M09 A3018 RMK A01 T01641086  RH  017%=      5-min Rain = 0
KAM3 122207Z 18007KT 16/M09 A3018 RMK A01 T01631086  RH  017%=      5-min Rain = 0
KAM3 122208Z 17003KT 16/M09 A3018 RMK A01 T01621087  RH  017%=      5-min Rain = 0
KAM3 122209Z 16002KT 16/M09 A3018 RMK A01 T01611086  RH  017%=      5-min Rain = 0
KAM3 122210Z 14003KT 16/M09 A3018 RMK A01 T01621085  RH  017%=      5-min Rain = 0
KAM3 122211Z 14008KT 16/M09 A3018 RMK A01 T01641085  RH  017%=      5-min Rain = 0
KAM3 122212Z 14008KT 17/M08 A3018 RMK A01 T01651084  RH  017%=      5-min Rain = 0
KAM3 122213Z 19012KT 17/M08 A3018 RMK A01 T01661083  RH  017%=      5-min Rain = 0
KAM3 122214Z 21012KT 17/M08 A3018 RMK A01 T01691081  RH  017%=      5-min Rain = 0
KAM3 122215Z 22012KT 17/M08 A3018 RMK A01 T01721080  RH  017%=      5-min Rain = 0
KAM3 122216Z 21014KT 17/M08 A3018 RMK A01 T01731080  RH  017%=      5-min Rain = 0
KAM3 122217Z 22012KT 17/M08 A3018 RMK A01 T01711082  RH  017%=      5-min Rain = 0
KAM3 122218Z 21009KT 17/M08 A3018 RMK A01 T01671084  RH  017%=      5-min Rain = 0
KAM3 122219Z 20009KT 17/M08 A3018 RMK A01 T01671082  RH  017%=      5-min Rain = 0
KAM3 122220Z 19008KT 17/M08 A3018 RMK A01 T01681082  RH  017%=      5-min Rain = 0
KAM3 122221Z 18004KT 17/M08 A3018 RMK A01 T01681082  RH  017%=      5-min Rain = 0
KAM3 122222Z 15005KT 17/M08 A3018 RMK A01 T01681084  RH  017%=      5-min Rain = 0
KAM3 122223Z 15011KT 17/M08 A3017 RMK A01 T01681084  RH  017%=      5-min Rain = 0
KAM3 122224Z 15012KT 17/M09 A3017 RMK A01 T01671085  RH  017%=      5-min Rain = 0
KAM3 122225Z 15014KT 17/M09 A3017 RMK A01 T01651086  RH  017%=      5-min Rain = 0
KAM3 122226Z 14008KT 16/M09 A3018 RMK A01 T01641085  RH  017%=      5-min Rain = 0
KAM3 122227Z 14008KT 16/M08 A3018 RMK A01 T01641084  RH  017%=      5-min Rain = 0
KAM3 122228Z 15008KT 17/M09 A3018 RMK A01 T01651085  RH  017%=      5-min Rain = 0
KAM3 122229Z 17006KT 17/M09 A3017 RMK A01 T01651085  RH  017%=      5-min Rain = 0
KAM3 122230Z 15009KT 17/M08 A3017 RMK A01 T01651084  RH  017%=      5-min Rain = 0
KAM3 122231Z 13009KT 17/M08 A3017 RMK A01 T01661084  RH  017%=      5-min Rain = 0
KAM3 122232Z 15007KT 17/M09 A3017 RMK A01 T01651085  RH  017%=      5-min Rain = 0
KAM3 122233Z 17008KT 17/M08 A3017 RMK A01 T01671082  RH  017%=      5-min Rain = 0
KAM3 122234Z 19008KT 17/M08 A3017 RMK A01 T01681082  RH  017%=      5-min Rain = 0
KAM3 122235Z 17007KT 17/M08 A3017 RMK A01 T01691082  RH  017%=      5-min Rain = 0
KAM3 122236Z 19008KT 17/M08 A3017 RMK A01 T01691082  RH  017%=      5-min Rain = 0
KAM3 122237Z 18013KT 17/M08 A3017 RMK A01 T01691082  RH  017%=      5-min Rain = 0
KAM3 122238Z 17009KT 17/M08 A3017 RMK A01 T01681083  RH  017%=      5-min Rain = 0
KAM3 122239Z 19011KT 17/M08 A3017 RMK A01 T01671082  RH  017%=      5-min Rain = 0
KAM3 122240Z 17013KT 17/M08 A3017 RMK A01 T01671082  RH  017%=      5-min Rain = 0
KAM3 122241Z 18013KT 17/M08 A3017 RMK A01 T01691082  RH  017%=      5-min Rain = 0
KAM3 122242Z 18010KT 17/M08 A3017 RMK A01 T01671083  RH  017%=      5-min Rain = 0
KAM3 122243Z 18009KT 17/M08 A3017 RMK A01 T01661083  RH  017%=      5-min Rain = 0
KAM3 122244Z 18010KT 17/M08 A3017 RMK A01 T01651083  RH  017%=      5-min Rain = 0
KAM3 122245Z 16007KT 17/M08 A3017 RMK A01 T01651083  RH  018%=      5-min Rain = 0
KAM3 122246Z 16008G14KT 17/M08 A3017 RMK A01 T01651082  RH  018%=      5-min Rain = 0
KAM3 122247Z 16016KT 17/M08 A3016 RMK A01 T01671080  RH  018%=      5-min Rain = 0
KAM3 122248Z 17012KT 17/M08 A3017 RMK A01 T01661081  RH  018%=      5-min Rain = 0
KAM3 122249Z 18009KT 16/M08 A3017 RMK A01 T01641080  RH  018%=      5-min Rain = 0
KAM3 122250Z 17011KT 17/M08 A3017 RMK A01 T01651079  RH  018%=      5-min Rain = 0
KAM3 122251Z 18009KT 17/M08 A3017 RMK A01 T01661080  RH  018%=      5-min Rain = 0
KAM3 122252Z 17008KT 17/M08 A3017 RMK A01 T01661079  RH  018%=      5-min Rain = 0
KAM3 122253Z 16008KT 17/M08 A3017 RMK A01 T01651079  RH  018%=      5-min Rain = 0
KAM3 122254Z 16009KT 17/M08 A3017 RMK A01 T01661079  RH  018%=      5-min Rain = 0
KAM3 122255Z 16012KT 17/M08 A3017 RMK A01 T01671079  RH  018%=      5-min Rain = 0
KAM3 122256Z 16010KT 17/M08 A3017 RMK A01 T01661079  RH  018%=      5-min Rain = 0
KAM3 122257Z 17007KT 17/M08 A3017 RMK A01 T01651080  RH  018%=      5-min Rain = 0
KAM3 122258Z 18009KT 17/M08 A3017 RMK A01 T01661079  RH  018%=      5-min Rain = 0
KAM3 122259Z 17009KT 17/M08 A3016 RMK A01 T01671078  RH  018%=      5-min Rain = 0
KAM3 122300Z 16008KT 17/M08 A3016 RMK A01 T01671079  RH  018%=      5-min Rain = 0
KAM3 122301Z 19008KT 17/M08 A3016 RMK A01 T01691078  RH  018%=      5-min Rain = 0
KAM3 122302Z 17007KT 17/M08 A3016 RMK A01 T01691078  RH  018%=      5-min Rain = 0
KAM3 122303Z 16010KT 17/M08 A3016 RMK A01 T01691078  RH  018%=      5-min Rain = 0
KAM3 122304Z 16011KT 17/M08 A3016 RMK A01 T01691079  RH  018%=      5-min Rain = 0
KAM3 122305Z 17010KT 17/M08 A3016 RMK A01 T01681079  RH  018%=      5-min Rain = 0
KAM3 122306Z 17011KT 17/M08 A3016 RMK A01 T01661079  RH  018%=      5-min Rain = 0
KAM3 122307Z 16015KT 17/M08 A3016 RMK A01 T01661078  RH  018%=      5-min Rain = 0
KAM3 122308Z 16011KT 17/M08 A3016 RMK A01 T01651079  RH  018%=      5-min Rain = 0
KAM3 122309Z 18011KT 17/M08 A3016 RMK A01 T01651079  RH  018%=      5-min Rain = 0
KAM3 122310Z 18011KT 17/M08 A3016 RMK A01 T01661077  RH  018%=      5-min Rain = 0
KAM3 122311Z 18009KT 17/M08 A3016 RMK A01 T01651078  RH  018%=      5-min Rain = 0
KAM3 122312Z 17007KT 16/M08 A3016 RMK A01 T01641078  RH  018%=      5-min Rain = 0
KAM3 122313Z 16009KT 16/M08 A3016 RMK A01 T01641077  RH  018%=      5-min Rain = 0
KAM3 122314Z 16007KT 16/M08 A3016 RMK A01 T01641079  RH  018%=      5-min Rain = 0
KAM3 122315Z 15007KT 16/M08 A3016 RMK A01 T01631079  RH  018%=      5-min Rain = 0
KAM3 122316Z 14008KT 16/M08 A3016 RMK A01 T01631080  RH  018%=      5-min Rain = 0
KAM3 122317Z 15007KT 16/M08 A3016 RMK A01 T01631080  RH  018%=      5-min Rain = 0
KAM3 122318Z 16006KT 16/M08 A3016 RMK A01 T01611080  RH  018%=      5-min Rain = 0
KAM3 122319Z 17005KT 16/M08 A3016 RMK A01 T01601080  RH  018%=      5-min Rain = 0
KAM3 122320Z 18006KT 16/M08 A3016 RMK A01 T01611079  RH  018%=      5-min Rain = 0
KAM3 122321Z 19008KT 16/M08 A3016 RMK A01 T01611079  RH  018%=      5-min Rain = 0
KAM3 122322Z 19011KT 16/M08 A3016 RMK A01 T01631076  RH  019%=      5-min Rain = 0
KAM3 122323Z 18010KT 16/M07 A3016 RMK A01 T01631074  RH  019%=      5-min Rain = 0
KAM3 122324Z 18009KT 16/M07 A3016 RMK A01 T01631074  RH  019%=      5-min Rain = 0
KAM3 122325Z 18009KT 16/M07 A3016 RMK A01 T01611073  RH  019%=      5-min Rain = 0
KAM3 122326Z 16009KT 16/M07 A3016 RMK A01 T01611073  RH  019%=      5-min Rain = 0
KAM3 122327Z 16008KT 16/M07 A3016 RMK A01 T01601073  RH  019%=      5-min Rain = 0
KAM3 122328Z 17008KT 16/M07 A3016 RMK A01 T01601073  RH  019%=      5-min Rain = 0
KAM3 122329Z 18010KT 16/M07 A3016 RMK A01 T01601074  RH  019%=      5-min Rain = 0
KAM3 122330Z 18011KT 16/M08 A3016 RMK A01 T01601075  RH  019%=      5-min Rain = 0
KAM3 122331Z 17009KT 16/M08 A3016 RMK A01 T01591075  RH  019%=      5-min Rain = 0
KAM3 122332Z 18010KT 16/M07 A3016 RMK A01 T01611074  RH  019%=      5-min Rain = 0
KAM3 122333Z 19011KT 16/M08 A3016 RMK A01 T01621075  RH  019%=      5-min Rain = 0
KAM3 122334Z 18011KT 16/M08 A3016 RMK A01 T01621075  RH  019%=      5-min Rain = 0
KAM3 122335Z 18011KT 16/M08 A3016 RMK A01 T01621075  RH  019%=      5-min Rain = 0
KAM3 122336Z 19009KT 16/M07 A3016 RMK A01 T01611074  RH  019%=      5-min Rain = 0
KAM3 122337Z 19009KT 16/M07 A3016 RMK A01 T01611074  RH  019%=      5-min Rain = 0
KAM3 122338Z 18011KT 16/M08 A3016 RMK A01 T01611075  RH  019%=      5-min Rain = 0
KAM3 122339Z 18010KT 16/M08 A3016 RMK A01 T01621075  RH  019%=      5-min Rain = 0
KAM3 122340Z 18009KT 16/M08 A3016 RMK A01 T01611076  RH  019%=      5-min Rain = 0
KAM3 122341Z 17008KT 16/M08 A3016 RMK A01 T01601076  RH  019%=      5-min Rain = 0
KAM3 122342Z 17007KT 16/M08 A3016 RMK A01 T01591075  RH  019%=      5-min Rain = 0
KAM3 122343Z 19008KT 16/M08 A3016 RMK A01 T01591075  RH  019%=      5-min Rain = 0
KAM3 122344Z 19007KT 16/M08 A3016 RMK A01 T01581076  RH  019%=      5-min Rain = 0
KAM3 122345Z 18009KT 16/M08 A3016 RMK A01 T01581075  RH  019%=      5-min Rain = 0
KAM3 122346Z 18008KT 16/M08 A3016 RMK A01 T01591075  RH  019%=      5-min Rain = 0
KAM3 122347Z 18008KT 16/M08 A3016 RMK A01 T01581076  RH  019%=      5-min Rain = 0
KAM3 122348Z 18007KT 16/M08 A3016 RMK A01 T01581076  RH  019%=      5-min Rain = 0
KAM3 122349Z 18007KT 16/M08 A3016 RMK A01 T01561077  RH  019%=      5-min Rain = 0
KAM3 122350Z 17009KT 16/M08 A3016 RMK A01 T01561076  RH  020%=      5-min Rain = 0
KAM3 122351Z 17008KT 16/M08 A3016 RMK A01 T01551076  RH  020%=      5-min Rain = 0
KAM3 122352Z 16007KT 16/M08 A3016 RMK A01 T01551077  RH  020%=      5-min Rain = 0
KAM3 122353Z 16008KT 16/M08 A3016 RMK A01 T01551077  RH  019%=      5-min Rain = 0
KAM3 122354Z 16009KT 16/M08 A3016 RMK A01 T01551078  RH  019%=      5-min Rain = 0
KAM3 122355Z 17011KT 16/M08 A3016 RMK A01 T01551078  RH  019%=      5-min Rain = 0
KAM3 122356Z 16010KT 15/M08 A3016 RMK A01 T01541078  RH  019%=      5-min Rain = 0
KAM3 122357Z 17009KT 15/M08 A3016 RMK A01 T01541078  RH  019%=      5-min Rain = 0
KAM3 122358Z 18009KT 15/M08 A3016 RMK A01 T01531078  RH  020%=      5-min Rain = 0
KAM3 122359Z 18011KT 15/M08 A3016 RMK A01 T01531077  RH  020%=      5-min Rain = 0
KAM3 130000Z 18010KT 15/M08 A3016 RMK A01 T01531076  RH  020%=      5-min Rain = 0
KAM3 130001Z 17011KT 15/M08 A3016 RMK A01 T01531076  RH  020%=      5-min Rain = 0
KAM3 130002Z 19010KT 15/M08 A3016 RMK A01 T01531076  RH  020%=      5-min Rain = 0
KAM3 130003Z 18010KT 15/M08 A3016 RMK A01 T01531075  RH  020%=      5-min Rain = 0
KAM3 130004Z 18010KT 15/M08 A3016 RMK A01 T01521075  RH  020%=      5-min Rain = 0
KAM3 130005Z 18008KT 15/M08 A3016 RMK A01 T01521075  RH  020%=      5-min Rain = 0
KAM3 130006Z 18010KT 15/M08 A3016 RMK A01 T01521075  RH  020%=      5-min Rain = 0
KAM3 130007Z 18009KT 15/M08 A3016 RMK A01 T01511075  RH  020%=      5-min Rain = 0
KAM3 130008Z 17008KT 15/M08 A3016 RMK A01 T01501075  RH  020%=      5-min Rain = 0
KAM3 130009Z 17008KT 15/M08 A3016 RMK A01 T01481076  RH  021%=      5-min Rain = 0
KAM3 130010Z 18009KT 15/M08 A3016 RMK A01 T01481075  RH  021%=      5-min Rain = 0
KAM3 130011Z 17007KT 15/M08 A3016 RMK A01 T01471075  RH  021%=      5-min Rain = 0
KAM3 130012Z 17006KT 15/M08 A3016 RMK A01 T01471075  RH  021%=      5-min Rain = 0
KAM3 130013Z 17008KT 15/M08 A3016 RMK A01 T01461075  RH  021%=      5-min Rain = 0
KAM3 130014Z 17008KT 15/M08 A3016 RMK A01 T01451076  RH  021%=      5-min Rain = 0
KAM3 130015Z 18008KT 15/M08 A3016 RMK A01 T01451076  RH  021%=      5-min Rain = 0
KAM3 130016Z 17007KT 14/M08 A3016 RMK A01 T01441076  RH  021%=      5-min Rain = 0
KAM3 130017Z 17007KT 14/M08 A3016 RMK A01 T01441076  RH  021%=      5-min Rain = 0
KAM3 130018Z 17008KT 14/M08 A3016 RMK A01 T01431076  RH  021%=      5-min Rain = 0
KAM3 130019Z 17010KT 14/M08 A3016 RMK A01 T01431077  RH  021%=      5-min Rain = 0
KAM3 130020Z 17010KT 14/M08 A3016 RMK A01 T01421079  RH  021%=      5-min Rain = 0
KAM3 130021Z 18011KT 14/M08 A3016 RMK A01 T01421079  RH  021%=      5-min Rain = 0
KAM3 130022Z 18010KT 14/M08 A3016 RMK A01 T01411080  RH  021%=      5-min Rain = 0
KAM3 130023Z 18009KT 14/M08 A3016 RMK A01 T01421080  RH  021%=      5-min Rain = 0
KAM3 130024Z 17009KT 14/M08 A3016 RMK A01 T01421080  RH  021%=      5-min Rain = 0
KAM3 130025Z 16010KT 14/M08 A3016 RMK A01 T01411080  RH  021%=      5-min Rain = 0
KAM3 130026Z 16013KT 14/M08 A3016 RMK A01 T01411080  RH  021%=      5-min Rain = 0
KAM3 130027Z 17012KT 14/M08 A3016 RMK A01 T01401080  RH  021%=      5-min Rain = 0
KAM3 130028Z 17011KT 14/M08 A3016 RMK A01 T01401079  RH  021%=      5-min Rain = 0
KAM3 130029Z 17010KT 14/M08 A3016 RMK A01 T01391080  RH  021%=      5-min Rain = 0
KAM3 130030Z 17009KT 14/M08 A3016 RMK A01 T01381080  RH  021%=      5-min Rain = 0
KAM3 130031Z 17009KT 14/M08 A3016 RMK A01 T01371080  RH  021%=      5-min Rain = 0
KAM3 130032Z 17008KT 14/M08 A3016 RMK A01 T01361080  RH  022%=      5-min Rain = 0
KAM3 130033Z 17008KT 14/M08 A3017 RMK A01 T01351080  RH  022%=      5-min Rain = 0
KAM3 130034Z 17009KT 13/M08 A3016 RMK A01 T01331080  RH  022%=      5-min Rain = 0
KAM3 130035Z 17009KT 13/M08 A3017 RMK A01 T01321080  RH  022%=      5-min Rain = 0
KAM3 130036Z 17009KT 13/M08 A3017 RMK A01 T01311081  RH  022%=      5-min Rain = 0
KAM3 130037Z 17010KT 13/M08 A3017 RMK A01 T01301080  RH  022%=      5-min Rain = 0
KAM3 130038Z 16009KT 13/M08 A3017 RMK A01 T01301080  RH  022%=      5-min Rain = 0
KAM3 130039Z 17010KT 13/M08 A3017 RMK A01 T01301079  RH  023%=      5-min Rain = 0
KAM3 130040Z 16010KT 13/M08 A3017 RMK A01 T01291079  RH  023%=      5-min Rain = 0
KAM3 130041Z 17009KT 13/M08 A3017 RMK A01 T01291079  RH  023%=      5-min Rain = 0
KAM3 130042Z 16009KT 13/M08 A3017 RMK A01 T01291080  RH  023%=      5-min Rain = 0
KAM3 130043Z 16008KT 13/M08 A3017 RMK A01 T01271080  RH  023%=      5-min Rain = 0
KAM3 130044Z 17009KT 13/M08 A3017 RMK A01 T01261080  RH  023%=      5-min Rain = 0
KAM3 130045Z 16009KT 13/M08 A3017 RMK A01 T01251080  RH  023%=      5-min Rain = 0
KAM3 130046Z 16009KT 13/M08 A3017 RMK A01 T01251080  RH  023%=      5-min Rain = 0
KAM3 130047Z 16009KT 12/M08 A3017 RMK A01 T01241080  RH  023%=      5-min Rain = 0
KAM3 130048Z 16009KT 12/M08 A3017 RMK A01 T01231080  RH  023%=      5-min Rain = 0
KAM3 130049Z 16009KT 12/M08 A3017 RMK A01 T01221081  RH  023%=      5-min Rain = 0
KAM3 130050Z 16008KT 12/M08 A3017 RMK A01 T01221081  RH  024%=      5-min Rain = 0
KAM3 130051Z 16010KT 12/M08 A3017 RMK A01 T01211080  RH  024%=      5-min Rain = 0
KAM3 130052Z 16009KT 12/M08 A3017 RMK A01 T01211080  RH  024%=      5-min Rain = 0
KAM3 130053Z 16010KT 12/M08 A3017 RMK A01 T01201081  RH  024%=      5-min Rain = 0
KAM3 130054Z 16009KT 12/M08 A3017 RMK A01 T01201081  RH  024%=      5-min Rain = 0
KAM3 130055Z 16010KT 12/M08 A3017 RMK A01 T01201080  RH  024%=      5-min Rain = 0
KAM3 130056Z 17009KT 12/M08 A3017 RMK A01 T01191081  RH  024%=      5-min Rain = 0
KAM3 130057Z 17009KT 12/M08 A3017 RMK A01 T01181080  RH  024%=      5-min Rain = 0
KAM3 130058Z 17009KT 12/M08 A3017 RMK A01 T01181080  RH  024%=      5-min Rain = 0
KAM3 130059Z 17009KT 12/M08 A3017 RMK A01 T01171081  RH  024%=      5-min Rain = 0
KAM3 130100Z 17009KT 12/M08 A3017 RMK A01 T01171080  RH  024%=      5-min Rain = 0
KAM3 130101Z 17010KT 12/M08 A3017 RMK A01 T01151081  RH  025%=      5-min Rain = 0
KAM3 130102Z 17009KT 11/M08 A3017 RMK A01 T01141080  RH  025%=      5-min Rain = 0
KAM3 130103Z 17009KT 11/M08 A3017 RMK A01 T01141080  RH  025%=      5-min Rain = 0
KAM3 130104Z 17009KT 11/M08 A3017 RMK A01 T01141080  RH  025%=      5-min Rain = 0
KAM3 130105Z 17009KT 11/M08 A3017 RMK A01 T01141080  RH  025%=      5-min Rain = 0
KAM3 130106Z 17010KT 11/M08 A3017 RMK A01 T01141080  RH  025%=      5-min Rain = 0
KAM3 130107Z 17009KT 11/M08 A3017 RMK A01 T01131080  RH  025%=      5-min Rain = 0
KAM3 130108Z 17010KT 11/M08 A3017 RMK A01 T01121080  RH  025%=      5-min Rain = 0
KAM3 130109Z 17010KT 11/M08 A3017 RMK A01 T01111080  RH  025%=      5-min Rain = 0
KAM3 130110Z 17010KT 11/M08 A3017 RMK A01 T01101080  RH  025%=      5-min Rain = 0
KAM3 130111Z 17010KT 11/M08 A3017 RMK A01 T01101080  RH  026%=      5-min Rain = 0
KAM3 130112Z 17010KT 11/M08 A3017 RMK A01 T01081081  RH  026%=      5-min Rain = 0
KAM3 130113Z 17010KT 11/M08 A3017 RMK A01 T01071080  RH  026%=      5-min Rain = 0
KAM3 130114Z 17010KT 11/M08 A3017 RMK A01 T01071080  RH  026%=      5-min Rain = 0
KAM3 130115Z 17010KT 11/M08 A3017 RMK A01 T01061081  RH  026%=      5-min Rain = 0
KAM3 130116Z 17010KT 11/M08 A3017 RMK A01 T01061080  RH  026%=      5-min Rain = 0
KAM3 130117Z 17010KT 11/M08 A3017 RMK A01 T01061080  RH  026%=      5-min Rain = 0
KAM3 130118Z 16009KT 11/M08 A3018 RMK A01 T01051080  RH  026%=      5-min Rain = 0
KAM3 130119Z 16008KT 10/M08 A3018 RMK A01 T01041081  RH  026%=      5-min Rain = 0
KAM3 130120Z 16009KT 10/M08 A3018 RMK A01 T01021081  RH  027%=      5-min Rain = 0
KAM3 130121Z 16009KT 10/M08 A3018 RMK A01 T01011081  RH  027%=      5-min Rain = 0
KAM3 130122Z 16008KT 10/M08 A3018 RMK A01 T01001082  RH  027%=      5-min Rain = 0
KAM3 130123Z 16009KT 10/M08 A3018 RMK A01 T00991082  RH  027%=      5-min Rain = 0
KAM3 130124Z 16009KT 10/M08 A3018 RMK A01 T00981082  RH  027%=      5-min Rain = 0
KAM3 130125Z 16009KT 10/M08 A3018 RMK A01 T00971082  RH  027%=      5-min Rain = 0
KAM3 130126Z 16009KT 10/M08 A3018 RMK A01 T00961082  RH  028%=      5-min Rain = 0
KAM3 130127Z 16009KT 10/M08 A3018 RMK A01 T00951083  RH  028%=      5-min Rain = 0
KAM3 130128Z 16009KT 09/M08 A3018 RMK A01 T00941083  RH  028%=      5-min Rain = 0
KAM3 130129Z 16009KT 09/M08 A3018 RMK A01 T00941083  RH  028%=      5-min Rain = 0
KAM3 130130Z 16009KT 09/M08 A3018 RMK A01 T00931083  RH  028%=      5-min Rain = 0
KAM3 130131Z 16009KT 09/M08 A3018 RMK A01 T00931083  RH  028%=      5-min Rain = 0
KAM3 130132Z 16009KT 09/M08 A3018 RMK A01 T00931083  RH  028%=      5-min Rain = 0
KAM3 130133Z 16009KT 09/M08 A3018 RMK A01 T00921083  RH  028%=      5-min Rain = 0
KAM3 130134Z 16009KT 09/M08 A3018 RMK A01 T00921083  RH  028%=      5-min Rain = 0
KAM3 130135Z 16009KT 09/M08 A3018 RMK A01 T00911083  RH  028%=      5-min Rain = 0
KAM3 130136Z 16009KT 09/M08 A3018 RMK A01 T00901083  RH  028%=      5-min Rain = 0
KAM3 130137Z 16010KT 09/M08 A3018 RMK A01 T00901083  RH  029%=      5-min Rain = 0
KAM3 130138Z 16010KT 09/M08 A3018 RMK A01 T00891083  RH  029%=      5-min Rain = 0
KAM3 130139Z 17010KT 09/M08 A3018 RMK A01 T00891083  RH  029%=      5-min Rain = 0
KAM3 130140Z 17010KT 09/M08 A3018 RMK A01 T00891083  RH  029%=      5-min Rain = 0
KAM3 130141Z 17010KT 09/M08 A3018 RMK A01 T00891082  RH  029%=      5-min Rain = 0
KAM3 130142Z 17010KT 09/M08 A3018 RMK A01 T00891082  RH  029%=      5-min Rain = 0
KAM3 130143Z 17010KT 09/M08 A3018 RMK A01 T00881082  RH  029%=      5-min Rain = 0
KAM3 130144Z 17010KT 09/M08 A3018 RMK A01 T00891081  RH  029%=      5-min Rain = 0
KAM3 130145Z 17010KT 09/M08 A3018 RMK A01 T00881082  RH  029%=      5-min Rain = 0
KAM3 130146Z 17010KT 09/M08 A3018 RMK A01 T00881082  RH  029%=      5-min Rain = 0
KAM3 130147Z 17009KT 09/M08 A3018 RMK A01 T00871083  RH  029%=      5-min Rain = 0
KAM3 130148Z 17010KT 09/M08 A3018 RMK A01 T00871083  RH  029%=      5-min Rain = 0
KAM3 130149Z 17010KT 09/M08 A3018 RMK A01 T00861083  RH  029%=      5-min Rain = 0
KAM3 130150Z 17010KT 09/M08 A3018 RMK A01 T00851084  RH  029%=      5-min Rain = 0
KAM3 130151Z 17010KT 08/M08 A3018 RMK A01 T00841084  RH  029%=      5-min Rain = 0
KAM3 130152Z 17009KT 08/M08 A3018 RMK A01 T00841084  RH  030%=      5-min Rain = 0
KAM3 130153Z 16009KT 08/M08 A3018 RMK A01 T00831084  RH  030%=      5-min Rain = 0
KAM3 130154Z 17010KT 08/M09 A3018 RMK A01 T00821085  RH  030%=      5-min Rain = 0
KAM3 130155Z 17010KT 08/M09 A3018 RMK A01 T00811085  RH  030%=      5-min Rain = 0
KAM3 130156Z 17010KT 08/M09 A3018 RMK A01 T00811085  RH  030%=      5-min Rain = 0
KAM3 130157Z 17010KT 08/M09 A3018 RMK A01 T00811085  RH  030%=      5-min Rain = 0
KAM3 130158Z 17010KT 08/M09 A3018 RMK A01 T00811085  RH  030%=      5-min Rain = 0
KAM3 130159Z 17010KT 08/M09 A3018 RMK A01 T00811085  RH  030%=      5-min Rain = 0
KAM3 130200Z 16010KT 08/M09 A3018 RMK A01 T00811085  RH  030%=      5-min Rain = 0
KAM3 130201Z 16010KT 08/M08 A3018 RMK A01 T00811084  RH  030%=      5-min Rain = 0
KAM3 130202Z 16010KT 08/M08 A3018 RMK A01 T00821084  RH  030%=      5-min Rain = 0
KAM3 130203Z 16010KT 08/M08 A3018 RMK A01 T00831084  RH  030%=      5-min Rain = 0
KAM3 130204Z 16011KT 08/M09 A3018 RMK A01 T00841085  RH  029%=      5-min Rain = 0
KAM3 130205Z 17011KT 08/M09 A3018 RMK A01 T00841085  RH  029%=      5-min Rain = 0
KAM3 130206Z 16011KT 09/M09 A3019 RMK A01 T00851085  RH  029%=      5-min Rain = 0
KAM3 130207Z 16010KT 09/M09 A3019 RMK A01 T00851085  RH  029%=      5-min Rain = 0
KAM3 130208Z 16010KT 09/M09 A3019 RMK A01 T00851086  RH  029%=      5-min Rain = 0
KAM3 130209Z 16010KT 08/M09 A3019 RMK A01 T00841086  RH  029%=      5-min Rain = 0
KAM3 130210Z 16009KT 08/M09 A3019 RMK A01 T00831086  RH  029%=      5-min Rain = 0
KAM3 130211Z 16009KT 08/M09 A3019 RMK A01 T00831086  RH  029%=      5-min Rain = 0
KAM3 130212Z 16009KT 08/M09 A3018 RMK A01 T00821086  RH  029%=      5-min Rain = 0
KAM3 130213Z 16009KT 08/M09 A3018 RMK A01 T00811086  RH  030%=      5-min Rain = 0
KAM3 130214Z 16010KT 08/M09 A3018 RMK A01 T00801085  RH  030%=      5-min Rain = 0
KAM3 130215Z 16010KT 08/M09 A3018 RMK A01 T00791085  RH  030%=      5-min Rain = 0
KAM3 130216Z 17009KT 08/M09 A3018 RMK A01 T00791085  RH  030%=      5-min Rain = 0
KAM3 130217Z 17009KT 08/M08 A3019 RMK A01 T00791084  RH  030%=      5-min Rain = 0
KAM3 130218Z 16010KT 08/M09 A3019 RMK A01 T00791085  RH  030%=      5-min Rain = 0
KAM3 130219Z 17010KT 08/M09 A3019 RMK A01 T00781085  RH  031%=      5-min Rain = 0
KAM3 130220Z 17010KT 08/M09 A3019 RMK A01 T00781085  RH  031%=      5-min Rain = 0
KAM3 130221Z 16010KT 08/M09 A3019 RMK A01 T00781085  RH  031%=      5-min Rain = 0
KAM3 130222Z 16010KT 08/M08 A3019 RMK A01 T00781084  RH  031%=      5-min Rain = 0
KAM3 130223Z 16010KT 08/M08 A3019 RMK A01 T00781084  RH  031%=      5-min Rain = 0
KAM3 130224Z 16010KT 08/M08 A3019 RMK A01 T00781084  RH  031%=      5-min Rain = 0
KAM3 130225Z 16010KT 08/M08 A3019 RMK A01 T00791084  RH  031%=      5-min Rain = 0
KAM3 130226Z 16010KT 08/M08 A3019 RMK A01 T00781084  RH  031%=      5-min Rain = 0
KAM3 130227Z 16010KT 08/M08 A3019 RMK A01 T00781084  RH  031%=      5-min Rain = 0
KAM3 130228Z 16010KT 08/M08 A3019 RMK A01 T00771084  RH  031%=      5-min Rain = 0
KAM3 130229Z 16010KT 08/M09 A3019 RMK A01 T00771085  RH  031%=      5-min Rain = 0
KAM3 130230Z 16009KT 08/M09 A3019 RMK A01 T00761085  RH  031%=      5-min Rain = 0
KAM3 130231Z 15009KT 08/M09 A3019 RMK A01 T00751086  RH  031%=      5-min Rain = 0
KAM3 130232Z 15009KT 07/M09 A3019 RMK A01 T00731086  RH  031%=      5-min Rain = 0
KAM3 130233Z 15009KT 07/M09 A3019 RMK A01 T00711087  RH  031%=      5-min Rain = 0
KAM3 130234Z 15009KT 07/M09 A3019 RMK A01 T00701087  RH  032%=      5-min Rain = 0
KAM3 130235Z 15009KT 07/M09 A3019 RMK A01 T00691086  RH  032%=      5-min Rain = 0
KAM3 130236Z 15009KT 07/M09 A3019 RMK A01 T00671087  RH  032%=      5-min Rain = 0
KAM3 130237Z 15010KT 07/M09 A3019 RMK A01 T00661088  RH  032%=      5-min Rain = 0
KAM3 130238Z 15010KT 07/M09 A3019 RMK A01 T00651088  RH  033%=      5-min Rain = 0
KAM3 130239Z 15010KT 06/M09 A3019 RMK A01 T00641088  RH  033%=      5-min Rain = 0
KAM3 130240Z 15010KT 06/M09 A3019 RMK A01 T00641088  RH  033%=      5-min Rain = 0
KAM3 130241Z 15010KT 06/M09 A3019 RMK A01 T00641088  RH  033%=      5-min Rain = 0
KAM3 130242Z 15010KT 06/M09 A3019 RMK A01 T00631088  RH  033%=      5-min Rain = 0
KAM3 130243Z 15010KT 06/M09 A3019 RMK A01 T00631088  RH  033%=      5-min Rain = 0
KAM3 130244Z 15010KT 06/M09 A3019 RMK A01 T00631088  RH  033%=      5-min Rain = 0
KAM3 130245Z 15010KT 06/M09 A3019 RMK A01 T00631087  RH  033%=      5-min Rain = 0
KAM3 130246Z 15010KT 06/M09 A3019 RMK A01 T00631087  RH  033%=      5-min Rain = 0
KAM3 130247Z 14010KT 06/M09 A3019 RMK A01 T00631088  RH  033%=      5-min Rain = 0
KAM3 130248Z 14010KT 06/M09 A3019 RMK A01 T00641087  RH  033%=      5-min Rain = 0
KAM3 130249Z 14010KT 06/M09 A3019 RMK A01 T00631088  RH  033%=      5-min Rain = 0
KAM3 130250Z 13011KT 06/M09 A3019 RMK A01 T00611088  RH  033%=      5-min Rain = 0
KAM3 130251Z 13010KT 06/M09 A3019 RMK A01 T00611088  RH  034%=      5-min Rain = 0
KAM3 130252Z 13009KT 06/M09 A3019 RMK A01 T00611088  RH  034%=      5-min Rain = 0
KAM3 130253Z 13010KT 06/M09 A3019 RMK A01 T00601088  RH  034%=      5-min Rain = 0
KAM3 130254Z 14010KT 06/M09 A3019 RMK A01 T00601087  RH  034%=      5-min Rain = 0
KAM3 130255Z 14011KT 06/M09 A3019 RMK A01 T00611087  RH  034%=      5-min Rain = 0
KAM3 130256Z 14011KT 06/M09 A3019 RMK A01 T00631087  RH  033%=      5-min Rain = 0
KAM3 130257Z 14011KT 07/M09 A3019 RMK A01 T00661085  RH  033%=      5-min Rain = 0
KAM3 130258Z 14011KT 07/M09 A3019 RMK A01 T00681085  RH  033%=      5-min Rain = 0
KAM3 130259Z 14010KT 07/M09 A3019 RMK A01 T00691087  RH  032%=      5-min Rain = 0
KAM3 130300Z 14010KT 07/M09 A3019 RMK A01 T00681087  RH  032%=      5-min Rain = 0
KAM3 130301Z 14011KT 07/M09 A3019 RMK A01 T00681086  RH  032%=      5-min Rain = 0
KAM3 130302Z 14010KT 07/M09 A3019 RMK A01 T00691085  RH  032%=      5-min Rain = 0
KAM3 130303Z 14011KT 07/M09 A3019 RMK A01 T00701085  RH  032%=      5-min Rain = 0
KAM3 130304Z 14010KT 07/M09 A3019 RMK A01 T00701085  RH  032%=      5-min Rain = 0
KAM3 130305Z 14009KT 07/M09 A3019 RMK A01 T00701085  RH  032%=      5-min Rain = 0
KAM3 130306Z 13009KT 07/M09 A3019 RMK A01 T00691086  RH  032%=      5-min Rain = 0
KAM3 130307Z 13010KT 07/M09 A3019 RMK A01 T00681086  RH  033%=      5-min Rain = 0
KAM3 130308Z 14010KT 07/M09 A3019 RMK A01 T00671086  RH  033%=      5-min Rain = 0
KAM3 130309Z 14010KT 07/M09 A3019 RMK A01 T00671085  RH  033%=      5-min Rain = 0
KAM3 130310Z 14011KT 07/M08 A3019 RMK A01 T00671084  RH  033%=      5-min Rain = 0
KAM3 130311Z 14010KT 07/M08 A3019 RMK A01 T00681083  RH  033%=      5-min Rain = 0
KAM3 130312Z 14011KT 07/M08 A3019 RMK A01 T00701082  RH  033%=      5-min Rain = 0
KAM3 130313Z 14011KT 07/M08 A3019 RMK A01 T00711081  RH  033%=      5-min Rain = 0
KAM3 130314Z 14010KT 07/M08 A3019 RMK A01 T00721079  RH  033%=      5-min Rain = 0
KAM3 130315Z 14010KT 07/M08 A3019 RMK A01 T00721079  RH  033%=      5-min Rain = 0
KAM3 130316Z 14010KT 07/M08 A3019 RMK A01 T00721078  RH  034%=      5-min Rain = 0
KAM3 130317Z 14010KT 07/M08 A3019 RMK A01 T00721077  RH  034%=      5-min Rain = 0
KAM3 130318Z 14011KT 07/M08 A3019 RMK A01 T00721076  RH  034%=      5-min Rain = 0
KAM3 130319Z 14011KT 07/M08 A3019 RMK A01 T00721075  RH  034%=      5-min Rain = 0
KAM3 130320Z 14010KT 07/M08 A3019 RMK A01 T00721075  RH  034%=      5-min Rain = 0
KAM3 130321Z 14010KT 07/M08 A3019 RMK A01 T00721075  RH  034%=      5-min Rain = 0
KAM3 130322Z 15010KT 07/M07 A302 RMK A01 T00721074  RH  035%=      5-min Rain = 0
KAM3 130323Z 14011KT 07/M07 A302 RMK A01 T00721073  RH  035%=      5-min Rain = 0
KAM3 130324Z 15010KT 07/M07 A302 RMK A01 T00721071  RH  035%=      5-min Rain = 0
KAM3 130325Z 15011KT 07/M07 A302 RMK A01 T00721071  RH  035%=      5-min Rain = 0
KAM3 130326Z 15012KT 07/M07 A3019 RMK A01 T00721070  RH  035%=      5-min Rain = 0
KAM3 130327Z 15011KT 07/M07 A3019 RMK A01 T00721070  RH  036%=      5-min Rain = 0
KAM3 130328Z 15011KT 07/M07 A3019 RMK A01 T00721068  RH  036%=      5-min Rain = 0
KAM3 130329Z 15011KT 07/M07 A3019 RMK A01 T00721068  RH  036%=      5-min Rain = 0
KAM3 130330Z 15011KT 07/M07 A3019 RMK A01 T00721067  RH  036%=      5-min Rain = 0
KAM3 130331Z 15011KT 07/M07 A3019 RMK A01 T00731066  RH  036%=      5-min Rain = 0
KAM3 130332Z 15011KT 07/M07 A3019 RMK A01 T00721066  RH  037%=      5-min Rain = 0
KAM3 130333Z 15011KT 07/M07 A3019 RMK A01 T00721067  RH  037%=      5-min Rain = 0
KAM3 130334Z 14011KT 07/M07 A3019 RMK A01 T00721066  RH  037%=      5-min Rain = 0
KAM3 130335Z 14010KT 07/M07 A3019 RMK A01 T00721065  RH  037%=      5-min Rain = 0
KAM3 130336Z 15011KT 07/M07 A3019 RMK A01 T00721065  RH  037%=      5-min Rain = 0
KAM3 130337Z 15011KT 07/M06 A3019 RMK A01 T00721064  RH  038%=      5-min Rain = 0
KAM3 130338Z 15011KT 07/M06 A302 RMK A01 T00711063  RH  038%=      5-min Rain = 0
KAM3 130339Z 14011KT 07/M06 A302 RMK A01 T00721062  RH  038%=      5-min Rain = 0
KAM3 130340Z 14011KT 07/M06 A302 RMK A01 T00721062  RH  038%=      5-min Rain = 0
KAM3 130341Z 14011KT 07/M06 A302 RMK A01 T00721062  RH  038%=      5-min Rain = 0
KAM3 130342Z 14011KT 07/M06 A302 RMK A01 T00711061  RH  038%=      5-min Rain = 0
KAM3 130343Z 14011KT 07/M06 A302 RMK A01 T00721060  RH  038%=      5-min Rain = 0
KAM3 130344Z 14011KT 07/M06 A302 RMK A01 T00721060  RH  038%=      5-min Rain = 0
KAM3 130345Z 14011KT 07/M06 A3019 RMK A01 T00721060  RH  038%=      5-min Rain = 0
KAM3 130346Z 14011KT 07/M06 A3019 RMK A01 T00721060  RH  039%=      5-min Rain = 0
KAM3 130347Z 15011KT 07/M06 A302 RMK A01 T00721060  RH  039%=      5-min Rain = 0
KAM3 130348Z 15012KT 07/M06 A302 RMK A01 T00721060  RH  039%=      5-min Rain = 0
KAM3 130349Z 15010KT 07/M06 A302 RMK A01 T00731058  RH  039%=      5-min Rain = 0
KAM3 130350Z 15011KT 07/M06 A302 RMK A01 T00731058  RH  039%=      5-min Rain = 0
KAM3 130351Z 15010KT 07/M06 A302 RMK A01 T00731057  RH  039%=      5-min Rain = 0
KAM3 130352Z 14010KT 07/M06 A302 RMK A01 T00731057  RH  039%=      5-min Rain = 0
KAM3 130353Z 15011KT 07/M06 A302 RMK A01 T00731057  RH  039%=      5-min Rain = 0
KAM3 130354Z 15010KT 07/M06 A302 RMK A01 T00731057  RH  039%=      5-min Rain = 0
KAM3 130355Z 15011KT 07/M06 A3019 RMK A01 T00731057  RH  039%=      5-min Rain = 0
KAM3 130356Z 15011KT 07/M06 A3019 RMK A01 T00731057  RH  039%=      5-min Rain = 0
KAM3 130357Z 15012KT 07/M06 A3019 RMK A01 T00731057  RH  039%=      5-min Rain = 0
KAM3 130358Z 14011KT 07/M06 A3019 RMK A01 T00741057  RH  039%=      5-min Rain = 0
KAM3 130359Z 14011KT 07/M06 A3019 RMK A01 T00741056  RH  039%=      5-min Rain = 0
KAM3 130400Z 14012KT 07/M06 A3019 RMK A01 T00741056  RH  039%=      5-min Rain = 0
KAM3 130401Z 14011KT 07/M06 A3019 RMK A01 T00741057  RH  039%=      5-min Rain = 0
KAM3 130402Z 14011KT 07/M06 A3019 RMK A01 T00741057  RH  039%=      5-min Rain = 0
KAM3 130403Z 14012KT 07/M06 A3019 RMK A01 T00741057  RH  039%=      5-min Rain = 0
KAM3 130404Z 14010KT 07/M06 A3019 RMK A01 T00741056  RH  039%=      5-min Rain = 0
KAM3 130405Z 15011KT 07/M06 A3019 RMK A01 T00741057  RH  039%=      5-min Rain = 0
KAM3 130406Z 15012KT 07/M06 A3019 RMK A01 T00741056  RH  039%=      5-min Rain = 0
KAM3 130407Z 15011KT 07/M06 A3019 RMK A01 T00741056  RH  039%=      5-min Rain = 0
KAM3 130408Z 14012G17KT 07/M06 A3019 RMK A01 T00741056  RH  039%=      5-min Rain = 0
KAM3 130409Z 14012KT 07/M06 A3019 RMK A01 T00741056  RH  039%=      5-min Rain = 0
KAM3 130410Z 15013KT 08/M06 A3019 RMK A01 T00751056  RH  039%=      5-min Rain = 0
KAM3 130411Z 15013KT 08/M06 A3019 RMK A01 T00751056  RH  039%=      5-min Rain = 0
KAM3 130412Z 15011KT 08/M06 A3019 RMK A01 T00751057  RH  039%=      5-min Rain = 0
KAM3 130413Z 15013KT 08/M06 A3019 RMK A01 T00751056  RH  039%=      5-min Rain = 0
KAM3 130414Z 15013KT 08/M06 A3019 RMK A01 T00751056  RH  039%=      5-min Rain = 0
KAM3 130415Z 15012KT 08/M06 A3019 RMK A01 T00751056  RH  039%=      5-min Rain = 0
KAM3 130416Z 15014KT 08/M06 A3019 RMK A01 T00751056  RH  039%=      5-min Rain = 0
KAM3 130417Z 15013KT 08/M06 A3019 RMK A01 T00751056  RH  039%=      5-min Rain = 0
KAM3 130418Z 15011KT 08/M06 A3019 RMK A01 T00751056  RH  039%=      5-min Rain = 0
KAM3 130419Z 15012KT 08/M06 A3019 RMK A01 T00751056  RH  039%=      5-min Rain = 0
KAM3 130420Z 15012G17KT 07/M06 A3019 RMK A01 T00741056  RH  039%=      5-min Rain = 0
KAM3 130421Z 15013KT 07/M06 A3019 RMK A01 T00741056  RH  039%=      5-min Rain = 0
KAM3 130422Z 15014KT 07/M06 A3019 RMK A01 T00741056  RH  039%=      5-min Rain = 0
KAM3 130423Z 15013KT 07/M06 A3019 RMK A01 T00741056  RH  039%=      5-min Rain = 0
KAM3 130424Z 15014KT 07/M06 A3019 RMK A01 T00741056  RH  039%=      5-min Rain = 0
KAM3 130425Z 15013KT 08/M06 A3019 RMK A01 T00751056  RH  039%=      5-min Rain = 0
KAM3 130426Z 15013KT 08/M06 A3019 RMK A01 T00751056  RH  039%=      5-min Rain = 0
KAM3 130427Z 15013KT 08/M06 A3019 RMK A01 T00751056  RH  039%=      5-min Rain = 0
KAM3 130428Z 15013KT 08/M06 A3019 RMK A01 T00751056  RH  039%=      5-min Rain = 0
KAM3 130429Z 15013KT 07/M06 A3019 RMK A01 T00741056  RH  039%=      5-min Rain = 0
KAM3 130430Z 15013KT 07/M06 A3019 RMK A01 T00741056  RH  039%=      5-min Rain = 0
KAM3 130431Z 15014KT 07/M06 A3019 RMK A01 T00741056  RH  039%=      5-min Rain = 0
KAM3 130432Z 15013KT 07/M06 A3019 RMK A01 T00741056  RH  039%=      5-min Rain = 0
KAM3 130433Z 15012KT 07/M06 A3019 RMK A01 T00731056  RH  039%=      5-min Rain = 0
KAM3 130434Z 15013KT 07/M06 A3019 RMK A01 T00731056  RH  039%=      5-min Rain = 0
KAM3 130435Z 15013KT 07/M06 A3019 RMK A01 T00721056  RH  039%=      5-min Rain = 0
KAM3 130436Z 15014KT 07/M06 A3019 RMK A01 T00721056  RH  040%=      5-min Rain = 0
KAM3 130437Z 15013KT 07/M06 A3019 RMK A01 T00721056  RH  040%=      5-min Rain = 0
KAM3 130438Z 15014KT 07/M06 A3019 RMK A01 T00721056  RH  040%=      5-min Rain = 0
KAM3 130439Z 15014KT 07/M06 A3019 RMK A01 T00721056  RH  040%=      5-min Rain = 0
KAM3 130440Z 15014KT 07/M06 A3019 RMK A01 T00721056  RH  040%=      5-min Rain = 0
KAM3 130441Z 15013KT 07/M06 A3019 RMK A01 T00721056  RH  040%=      5-min Rain = 0
KAM3 130442Z 15014KT 07/M06 A3019 RMK A01 T00721056  RH  039%=      5-min Rain = 0
KAM3 130443Z 15013KT 07/M06 A3019 RMK A01 T00721056  RH  040%=      5-min Rain = 0
KAM3 130444Z 15013KT 07/M06 A3019 RMK A01 T00721057  RH  040%=      5-min Rain = 0
KAM3 130445Z 15013KT 07/M06 A3019 RMK A01 T00721056  RH  040%=      5-min Rain = 0
KAM3 130446Z 15013KT 07/M06 A3019 RMK A01 T00711056  RH  040%=      5-min Rain = 0
KAM3 130447Z 15014KT 07/M06 A3019 RMK A01 T00711057  RH  040%=      5-min Rain = 0
KAM3 130448Z 15014KT 07/M06 A3019 RMK A01 T00711056  RH  040%=      5-min Rain = 0
KAM3 130449Z 15012KT 07/M06 A3019 RMK A01 T00711057  RH  040%=      5-min Rain = 0
KAM3 130450Z 15012KT 07/M06 A3019 RMK A01 T00711057  RH  040%=      5-min Rain = 0
KAM3 130451Z 15014KT 07/M06 A3019 RMK A01 T00701057  RH  040%=      5-min Rain = 0
KAM3 130452Z 15013KT 07/M06 A3019 RMK A01 T00701057  RH  040%=      5-min Rain = 0
KAM3 130453Z 15013KT 07/M06 A3019 RMK A01 T00701057  RH  040%=      5-min Rain = 0
KAM3 130454Z 15014KT 07/M06 A3019 RMK A01 T00701057  RH  040%=      5-min Rain = 0
KAM3 130455Z 15014KT 07/M06 A3019 RMK A01 T00701057  RH  040%=      5-min Rain = 0
KAM3 130456Z 15013KT 07/M06 A3019 RMK A01 T00701057  RH  040%=      5-min Rain = 0
KAM3 130457Z 15013KT 07/M06 A3019 RMK A01 T00701057  RH  040%=      5-min Rain = 0
KAM3 130458Z 15013KT 07/M06 A3019 RMK A01 T00701057  RH  040%=      5-min Rain = 0
KAM3 130459Z 15013KT 07/M06 A3019 RMK A01 T00701056  RH  040%=      5-min Rain = 0

Page generated in 0.125 seconds.